<?xml version="1.0" encoding="UTF-8" standalone="no" ?>
<gpx xmlns="http://www.topografix.com/GPX/1/1" xmlns:xsi="http://www.w3.org/2001/XMLSchema-instance" xsi:schemaLocation="http://www.topografix.com/GPX/1/1 http://www.topografix.com/GPX/1/1/gpx.xsd" version="1.1" creator="VisuGPX - https://www.visugpx.com">
  <metadata>
    <name>Gourette-col du Soulor</name>
    <desc><![CDATA[Gourette col du Soulor]]></desc>
  </metadata>
  <trk>
    <name><![CDATA[Gourette-col du Soulor_1]]></name>
    <trkseg>
      <trkpt lat="42.95922" lon="-0.33025">
        <ele>1404.4</ele>
        <time>2019-06-17T07:13:14.000Z</time>
      </trkpt>
      <trkpt lat="42.95963" lon="-0.33035">
        <ele>1404.8</ele>
        <time>2019-06-17T07:13:14.668Z</time>
      </trkpt>
      <trkpt lat="42.9601" lon="-0.33048">
        <ele>1399.8</ele>
        <time>2019-06-17T07:13:15.437Z</time>
      </trkpt>
      <trkpt lat="42.96016" lon="-0.33052">
        <ele>1398.1</ele>
        <time>2019-06-17T07:13:15.544Z</time>
      </trkpt>
      <trkpt lat="42.96021" lon="-0.33058">
        <ele>1395.8</ele>
        <time>2019-06-17T07:13:15.651Z</time>
      </trkpt>
      <trkpt lat="42.96023" lon="-0.33071">
        <ele>1391.9</ele>
        <time>2019-06-17T07:13:15.807Z</time>
      </trkpt>
      <trkpt lat="42.96022" lon="-0.33077">
        <ele>1390.2</ele>
        <time>2019-06-17T07:13:15.879Z</time>
      </trkpt>
      <trkpt lat="42.96013" lon="-0.33086">
        <ele>1388.5</ele>
        <time>2019-06-17T07:13:16.058Z</time>
      </trkpt>
      <trkpt lat="42.95968" lon="-0.331">
        <ele>1388.6</ele>
        <time>2019-06-17T07:13:16.798Z</time>
      </trkpt>
      <trkpt lat="42.95903" lon="-0.33139">
        <ele>1382</ele>
        <time>2019-06-17T07:13:17.936Z</time>
      </trkpt>
      <trkpt lat="42.959" lon="-0.33145">
        <ele>1380.9</ele>
        <time>2019-06-17T07:13:18.021Z</time>
      </trkpt>
      <trkpt lat="42.959" lon="-0.3316">
        <ele>1378.2</ele>
        <time>2019-06-17T07:13:18.197Z</time>
      </trkpt>
      <trkpt lat="42.95906" lon="-0.33167">
        <ele>1376.9</ele>
        <time>2019-06-17T07:13:18.323Z</time>
      </trkpt>
      <trkpt lat="42.95924" lon="-0.33171">
        <ele>1376.2</ele>
        <time>2019-06-17T07:13:18.615Z</time>
      </trkpt>
      <trkpt lat="42.95974" lon="-0.33172">
        <ele>1374.9</ele>
        <time>2019-06-17T07:13:19.417Z</time>
      </trkpt>
      <trkpt lat="42.95979" lon="-0.33174">
        <ele>1374.2</ele>
        <time>2019-06-17T07:13:19.501Z</time>
      </trkpt>
      <trkpt lat="42.95992" lon="-0.33184">
        <ele>1371.5</ele>
        <time>2019-06-17T07:13:19.740Z</time>
      </trkpt>
      <trkpt lat="42.95992" lon="-0.33183">
        <ele>1371.6</ele>
        <time>2019-06-17T07:13:19.752Z</time>
      </trkpt>
      <trkpt lat="42.95995" lon="-0.33186">
        <ele>1370.9</ele>
        <time>2019-06-17T07:13:19.812Z</time>
      </trkpt>
      <trkpt lat="42.96012" lon="-0.33161">
        <ele>1374.2</ele>
        <time>2019-06-17T07:13:20.212Z</time>
      </trkpt>
      <trkpt lat="42.96036" lon="-0.33133">
        <ele>1377.7</ele>
        <time>2019-06-17T07:13:20.718Z</time>
      </trkpt>
      <trkpt lat="42.96052" lon="-0.33121">
        <ele>1379.1</ele>
        <time>2019-06-17T07:13:21.011Z</time>
      </trkpt>
      <trkpt lat="42.96067" lon="-0.33121">
        <ele>1378.4</ele>
        <time>2019-06-17T07:13:21.251Z</time>
      </trkpt>
      <trkpt lat="42.96084" lon="-0.33115">
        <ele>1379.7</ele>
        <time>2019-06-17T07:13:21.532Z</time>
      </trkpt>
      <trkpt lat="42.96105" lon="-0.33104">
        <ele>1381.9</ele>
        <time>2019-06-17T07:13:21.893Z</time>
      </trkpt>
      <trkpt lat="42.96119" lon="-0.33105">
        <ele>1380.4</ele>
        <time>2019-06-17T07:13:22.118Z</time>
      </trkpt>
      <trkpt lat="42.96125" lon="-0.33107">
        <ele>1379.1</ele>
        <time>2019-06-17T07:13:22.217Z</time>
      </trkpt>
      <trkpt lat="42.96137" lon="-0.33107">
        <ele>1377.8</ele>
        <time>2019-06-17T07:13:22.409Z</time>
      </trkpt>
      <trkpt lat="42.96145" lon="-0.33104">
        <ele>1378.2</ele>
        <time>2019-06-17T07:13:22.542Z</time>
      </trkpt>
      <trkpt lat="42.96176" lon="-0.33089">
        <ele>1381.5</ele>
        <time>2019-06-17T07:13:23.069Z</time>
      </trkpt>
      <trkpt lat="42.96194" lon="-0.33076">
        <ele>1385.2</ele>
        <time>2019-06-17T07:13:23.395Z</time>
      </trkpt>
      <trkpt lat="42.96194" lon="-0.33077">
        <ele>1384.8</ele>
        <time>2019-06-17T07:13:23.407Z</time>
      </trkpt>
      <trkpt lat="42.9621" lon="-0.33065">
        <ele>1387.7</ele>
        <time>2019-06-17T07:13:23.700Z</time>
      </trkpt>
      <trkpt lat="42.96217" lon="-0.33059">
        <ele>1389.3</ele>
        <time>2019-06-17T07:13:23.832Z</time>
      </trkpt>
      <trkpt lat="42.96235" lon="-0.33051">
        <ele>1390.9</ele>
        <time>2019-06-17T07:13:24.135Z</time>
      </trkpt>
      <trkpt lat="42.96257" lon="-0.3304">
        <ele>1394.2</ele>
        <time>2019-06-17T07:13:24.511Z</time>
      </trkpt>
      <trkpt lat="42.96273" lon="-0.33034">
        <ele>1397.6</ele>
        <time>2019-06-17T07:13:24.777Z</time>
      </trkpt>
      <trkpt lat="42.96295" lon="-0.33035">
        <ele>1402.8</ele>
        <time>2019-06-17T07:13:25.130Z</time>
      </trkpt>
      <trkpt lat="42.96316" lon="-0.33047">
        <ele>1407.8</ele>
        <time>2019-06-17T07:13:25.495Z</time>
      </trkpt>
      <trkpt lat="42.96324" lon="-0.33055">
        <ele>1409.5</ele>
        <time>2019-06-17T07:13:25.654Z</time>
      </trkpt>
      <trkpt lat="42.96328" lon="-0.33062">
        <ele>1409.5</ele>
        <time>2019-06-17T07:13:25.758Z</time>
      </trkpt>
      <trkpt lat="42.96336" lon="-0.33085">
        <ele>1407</ele>
        <time>2019-06-17T07:13:26.057Z</time>
      </trkpt>
      <trkpt lat="42.96345" lon="-0.33106">
        <ele>1406</ele>
        <time>2019-06-17T07:13:26.343Z</time>
      </trkpt>
      <trkpt lat="42.96357" lon="-0.33119">
        <ele>1406.9</ele>
        <time>2019-06-17T07:13:26.588Z</time>
      </trkpt>
      <trkpt lat="42.96377" lon="-0.33127">
        <ele>1410.9</ele>
        <time>2019-06-17T07:13:26.922Z</time>
      </trkpt>
      <trkpt lat="42.96411" lon="-0.33142">
        <ele>1414.1</ele>
        <time>2019-06-17T07:13:27.495Z</time>
      </trkpt>
      <trkpt lat="42.96428" lon="-0.33151">
        <ele>1416</ele>
        <time>2019-06-17T07:13:27.787Z</time>
      </trkpt>
      <trkpt lat="42.96442" lon="-0.33159">
        <ele>1418.3</ele>
        <time>2019-06-17T07:13:28.030Z</time>
      </trkpt>
      <trkpt lat="42.96453" lon="-0.33177">
        <ele>1417.6</ele>
        <time>2019-06-17T07:13:28.305Z</time>
      </trkpt>
      <trkpt lat="42.9647" lon="-0.33192">
        <ele>1423.4</ele>
        <time>2019-06-17T07:13:28.629Z</time>
      </trkpt>
      <trkpt lat="42.96477" lon="-0.33201">
        <ele>1425.7</ele>
        <time>2019-06-17T07:13:28.783Z</time>
      </trkpt>
      <trkpt lat="42.96483" lon="-0.33211">
        <ele>1427.1</ele>
        <time>2019-06-17T07:13:28.935Z</time>
      </trkpt>
      <trkpt lat="42.96494" lon="-0.33231">
        <ele>1429.3</ele>
        <time>2019-06-17T07:13:29.229Z</time>
      </trkpt>
      <trkpt lat="42.96497" lon="-0.33241">
        <ele>1429.6</ele>
        <time>2019-06-17T07:13:29.356Z</time>
      </trkpt>
      <trkpt lat="42.96497" lon="-0.33251">
        <ele>1428.3</ele>
        <time>2019-06-17T07:13:29.473Z</time>
      </trkpt>
      <trkpt lat="42.96498" lon="-0.33264">
        <ele>1428.4</ele>
        <time>2019-06-17T07:13:29.626Z</time>
      </trkpt>
      <trkpt lat="42.96506" lon="-0.33295">
        <ele>1432.2</ele>
        <time>2019-06-17T07:13:30.012Z</time>
      </trkpt>
      <trkpt lat="42.96508" lon="-0.33327">
        <ele>1432</ele>
        <time>2019-06-17T07:13:30.389Z</time>
      </trkpt>
      <trkpt lat="42.9651" lon="-0.33341">
        <ele>1431.9</ele>
        <time>2019-06-17T07:13:30.556Z</time>
      </trkpt>
      <trkpt lat="42.9652" lon="-0.33375">
        <ele>1433.9</ele>
        <time>2019-06-17T07:13:30.986Z</time>
      </trkpt>
      <trkpt lat="42.96528" lon="-0.33412">
        <ele>1435.4</ele>
        <time>2019-06-17T07:13:31.439Z</time>
      </trkpt>
      <trkpt lat="42.96535" lon="-0.33427">
        <ele>1435.6</ele>
        <time>2019-06-17T07:13:31.648Z</time>
      </trkpt>
      <trkpt lat="42.96551" lon="-0.33444">
        <ele>1437.6</ele>
        <time>2019-06-17T07:13:31.973Z</time>
      </trkpt>
      <trkpt lat="42.96559" lon="-0.33447">
        <ele>1438.9</ele>
        <time>2019-06-17T07:13:32.106Z</time>
      </trkpt>
      <trkpt lat="42.96569" lon="-0.33447">
        <ele>1440.6</ele>
        <time>2019-06-17T07:13:32.266Z</time>
      </trkpt>
      <trkpt lat="42.96595" lon="-0.33439">
        <ele>1448.6</ele>
        <time>2019-06-17T07:13:32.693Z</time>
      </trkpt>
      <trkpt lat="42.96608" lon="-0.33438">
        <ele>1452.3</ele>
        <time>2019-06-17T07:13:32.902Z</time>
      </trkpt>
      <trkpt lat="42.96615" lon="-0.33439">
        <ele>1454.3</ele>
        <time>2019-06-17T07:13:33.015Z</time>
      </trkpt>
      <trkpt lat="42.96622" lon="-0.33443">
        <ele>1455.8</ele>
        <time>2019-06-17T07:13:33.137Z</time>
      </trkpt>
      <trkpt lat="42.96628" lon="-0.33449">
        <ele>1456.6</ele>
        <time>2019-06-17T07:13:33.256Z</time>
      </trkpt>
      <trkpt lat="42.96636" lon="-0.33474">
        <ele>1454.3</ele>
        <time>2019-06-17T07:13:33.576Z</time>
      </trkpt>
      <trkpt lat="42.96637" lon="-0.33494">
        <ele>1451.2</ele>
        <time>2019-06-17T07:13:33.811Z</time>
      </trkpt>
      <trkpt lat="42.96642" lon="-0.33518">
        <ele>1449.2</ele>
        <time>2019-06-17T07:13:34.104Z</time>
      </trkpt>
      <trkpt lat="42.96644" lon="-0.33523">
        <ele>1449.3</ele>
        <time>2019-06-17T07:13:34.171Z</time>
      </trkpt>
      <trkpt lat="42.96651" lon="-0.33531">
        <ele>1451</ele>
        <time>2019-06-17T07:13:34.317Z</time>
      </trkpt>
      <trkpt lat="42.96661" lon="-0.33539">
        <ele>1453.7</ele>
        <time>2019-06-17T07:13:34.503Z</time>
      </trkpt>
      <trkpt lat="42.96686" lon="-0.33552">
        <ele>1459.3</ele>
        <time>2019-06-17T07:13:34.932Z</time>
      </trkpt>
      <trkpt lat="42.96698" lon="-0.33556">
        <ele>1461.8</ele>
        <time>2019-06-17T07:13:35.130Z</time>
      </trkpt>
      <trkpt lat="42.96719" lon="-0.33556">
        <ele>1467.9</ele>
        <time>2019-06-17T07:13:35.467Z</time>
      </trkpt>
      <trkpt lat="42.96741" lon="-0.33567">
        <ele>1469.1</ele>
        <time>2019-06-17T07:13:35.843Z</time>
      </trkpt>
      <trkpt lat="42.96759" lon="-0.33584">
        <ele>1468</ele>
        <time>2019-06-17T07:13:36.194Z</time>
      </trkpt>
      <trkpt lat="42.9679" lon="-0.33594">
        <ele>1477.8</ele>
        <time>2019-06-17T07:13:36.705Z</time>
      </trkpt>
      <trkpt lat="42.96797" lon="-0.33602">
        <ele>1479.3</ele>
        <time>2019-06-17T07:13:36.851Z</time>
      </trkpt>
      <trkpt lat="42.96801" lon="-0.33613">
        <ele>1478.7</ele>
        <time>2019-06-17T07:13:36.995Z</time>
      </trkpt>
      <trkpt lat="42.96806" lon="-0.33623">
        <ele>1478</ele>
        <time>2019-06-17T07:13:37.137Z</time>
      </trkpt>
      <trkpt lat="42.96813" lon="-0.33631">
        <ele>1478.6</ele>
        <time>2019-06-17T07:13:37.283Z</time>
      </trkpt>
      <trkpt lat="42.9683" lon="-0.33646">
        <ele>1479.9</ele>
        <time>2019-06-17T07:13:37.607Z</time>
      </trkpt>
      <trkpt lat="42.96846" lon="-0.33654">
        <ele>1482.2</ele>
        <time>2019-06-17T07:13:37.880Z</time>
      </trkpt>
      <trkpt lat="42.96862" lon="-0.33655">
        <ele>1487.6</ele>
        <time>2019-06-17T07:13:38.137Z</time>
      </trkpt>
      <trkpt lat="42.9688" lon="-0.33661">
        <ele>1490.7</ele>
        <time>2019-06-17T07:13:38.434Z</time>
      </trkpt>
      <trkpt lat="42.96888" lon="-0.3367">
        <ele>1490.2</ele>
        <time>2019-06-17T07:13:38.600Z</time>
      </trkpt>
      <trkpt lat="42.96891" lon="-0.3368">
        <ele>1490.3</ele>
        <time>2019-06-17T07:13:38.727Z</time>
      </trkpt>
      <trkpt lat="42.96888" lon="-0.33697">
        <ele>1487.1</ele>
        <time>2019-06-17T07:13:38.932Z</time>
      </trkpt>
      <trkpt lat="42.96885" lon="-0.33709">
        <ele>1488.2</ele>
        <time>2019-06-17T07:13:39.081Z</time>
      </trkpt>
      <trkpt lat="42.96884" lon="-0.33716">
        <ele>1489.3</ele>
        <time>2019-06-17T07:13:39.165Z</time>
      </trkpt>
      <trkpt lat="42.96892" lon="-0.33737">
        <ele>1494.3</ele>
        <time>2019-06-17T07:13:39.443Z</time>
      </trkpt>
      <trkpt lat="42.96892" lon="-0.33755">
        <ele>1493.8</ele>
        <time>2019-06-17T07:13:39.654Z</time>
      </trkpt>
      <trkpt lat="42.96885" lon="-0.33795">
        <ele>1497.2</ele>
        <time>2019-06-17T07:13:40.136Z</time>
      </trkpt>
      <trkpt lat="42.96886" lon="-0.3381">
        <ele>1499.4</ele>
        <time>2019-06-17T07:13:40.313Z</time>
      </trkpt>
      <trkpt lat="42.96893" lon="-0.33848">
        <ele>1504.1</ele>
        <time>2019-06-17T07:13:40.773Z</time>
      </trkpt>
      <trkpt lat="42.96902" lon="-0.33891">
        <ele>1508.8</ele>
        <time>2019-06-17T07:13:41.298Z</time>
      </trkpt>
      <trkpt lat="42.96903" lon="-0.33916">
        <ele>1509.2</ele>
        <time>2019-06-17T07:13:41.592Z</time>
      </trkpt>
      <trkpt lat="42.96913" lon="-0.3396">
        <ele>1513</ele>
        <time>2019-06-17T07:13:42.132Z</time>
      </trkpt>
      <trkpt lat="42.96929" lon="-0.34022">
        <ele>1517</ele>
        <time>2019-06-17T07:13:42.903Z</time>
      </trkpt>
      <trkpt lat="42.96936" lon="-0.3404">
        <ele>1518.4</ele>
        <time>2019-06-17T07:13:43.142Z</time>
      </trkpt>
      <trkpt lat="42.96945" lon="-0.34055">
        <ele>1520.5</ele>
        <time>2019-06-17T07:13:43.370Z</time>
      </trkpt>
      <trkpt lat="42.96947" lon="-0.34067">
        <ele>1522.4</ele>
        <time>2019-06-17T07:13:43.514Z</time>
      </trkpt>
      <trkpt lat="42.96947" lon="-0.34074">
        <ele>1522.9</ele>
        <time>2019-06-17T07:13:43.596Z</time>
      </trkpt>
      <trkpt lat="42.96939" lon="-0.34094">
        <ele>1522</ele>
        <time>2019-06-17T07:13:43.863Z</time>
      </trkpt>
      <trkpt lat="42.96928" lon="-0.34122">
        <ele>1522.5</ele>
        <time>2019-06-17T07:13:44.236Z</time>
      </trkpt>
      <trkpt lat="42.96927" lon="-0.34131">
        <ele>1523.2</ele>
        <time>2019-06-17T07:13:44.343Z</time>
      </trkpt>
      <trkpt lat="42.96932" lon="-0.34146">
        <ele>1526.2</ele>
        <time>2019-06-17T07:13:44.536Z</time>
      </trkpt>
      <trkpt lat="42.9696" lon="-0.342">
        <ele>1533.8</ele>
        <time>2019-06-17T07:13:45.312Z</time>
      </trkpt>
      <trkpt lat="42.96971" lon="-0.34224">
        <ele>1535.7</ele>
        <time>2019-06-17T07:13:45.644Z</time>
      </trkpt>
      <trkpt lat="42.96986" lon="-0.34264">
        <ele>1538.9</ele>
        <time>2019-06-17T07:13:46.171Z</time>
      </trkpt>
      <trkpt lat="42.96991" lon="-0.34284">
        <ele>1539.8</ele>
        <time>2019-06-17T07:13:46.419Z</time>
      </trkpt>
      <trkpt lat="42.96986" lon="-0.34327">
        <ele>1540.4</ele>
        <time>2019-06-17T07:13:46.930Z</time>
      </trkpt>
      <trkpt lat="42.96985" lon="-0.34355">
        <ele>1541.9</ele>
        <time>2019-06-17T07:13:47.259Z</time>
      </trkpt>
      <trkpt lat="42.96987" lon="-0.34366">
        <ele>1542.5</ele>
        <time>2019-06-17T07:13:47.392Z</time>
      </trkpt>
      <trkpt lat="42.96992" lon="-0.34375">
        <ele>1543.4</ele>
        <time>2019-06-17T07:13:47.525Z</time>
      </trkpt>
      <trkpt lat="42.97004" lon="-0.34385">
        <ele>1547.1</ele>
        <time>2019-06-17T07:13:47.750Z</time>
      </trkpt>
      <trkpt lat="42.97024" lon="-0.34402">
        <ele>1550.3</ele>
        <time>2019-06-17T07:13:48.128Z</time>
      </trkpt>
      <trkpt lat="42.97037" lon="-0.34425">
        <ele>1551.7</ele>
        <time>2019-06-17T07:13:48.469Z</time>
      </trkpt>
      <trkpt lat="42.97065" lon="-0.3448">
        <ele>1556.8</ele>
        <time>2019-06-17T07:13:49.255Z</time>
      </trkpt>
      <trkpt lat="42.97077" lon="-0.34512">
        <ele>1557.7</ele>
        <time>2019-06-17T07:13:49.677Z</time>
      </trkpt>
      <trkpt lat="42.97079" lon="-0.34519">
        <ele>1557.4</ele>
        <time>2019-06-17T07:13:49.765Z</time>
      </trkpt>
      <trkpt lat="42.97085" lon="-0.3453">
        <ele>1558.2</ele>
        <time>2019-06-17T07:13:49.926Z</time>
      </trkpt>
      <trkpt lat="42.97095" lon="-0.34541">
        <ele>1559.3</ele>
        <time>2019-06-17T07:13:50.132Z</time>
      </trkpt>
      <trkpt lat="42.97112" lon="-0.34554">
        <ele>1561.9</ele>
        <time>2019-06-17T07:13:50.444Z</time>
      </trkpt>
      <trkpt lat="42.97135" lon="-0.34566">
        <ele>1567</ele>
        <time>2019-06-17T07:13:50.839Z</time>
      </trkpt>
      <trkpt lat="42.97141" lon="-0.34572">
        <ele>1567.5</ele>
        <time>2019-06-17T07:13:50.958Z</time>
      </trkpt>
      <trkpt lat="42.97149" lon="-0.34586">
        <ele>1566.4</ele>
        <time>2019-06-17T07:13:51.166Z</time>
      </trkpt>
      <trkpt lat="42.97155" lon="-0.34614">
        <ele>1563.1</ele>
        <time>2019-06-17T07:13:51.508Z</time>
      </trkpt>
      <trkpt lat="42.97159" lon="-0.34635">
        <ele>1562</ele>
        <time>2019-06-17T07:13:51.763Z</time>
      </trkpt>
      <trkpt lat="42.9716" lon="-0.34663">
        <ele>1559.3</ele>
        <time>2019-06-17T07:13:52.092Z</time>
      </trkpt>
      <trkpt lat="42.97164" lon="-0.34677">
        <ele>1560</ele>
        <time>2019-06-17T07:13:52.268Z</time>
      </trkpt>
      <trkpt lat="42.97167" lon="-0.34681">
        <ele>1560.9</ele>
        <time>2019-06-17T07:13:52.335Z</time>
      </trkpt>
      <trkpt lat="42.97172" lon="-0.34683">
        <ele>1560</ele>
        <time>2019-06-17T07:13:52.419Z</time>
      </trkpt>
      <trkpt lat="42.97177" lon="-0.34683">
        <ele>1559.3</ele>
        <time>2019-06-17T07:13:52.499Z</time>
      </trkpt>
      <trkpt lat="42.97179" lon="-0.34681">
        <ele>1559.2</ele>
        <time>2019-06-17T07:13:52.539Z</time>
      </trkpt>
      <trkpt lat="42.97183" lon="-0.34672">
        <ele>1559.6</ele>
        <time>2019-06-17T07:13:52.663Z</time>
      </trkpt>
      <trkpt lat="42.97184" lon="-0.34638">
        <ele>1563.9</ele>
        <time>2019-06-17T07:13:53.062Z</time>
      </trkpt>
      <trkpt lat="42.97184" lon="-0.34611">
        <ele>1569</ele>
        <time>2019-06-17T07:13:53.379Z</time>
      </trkpt>
      <trkpt lat="42.97188" lon="-0.34594">
        <ele>1573</ele>
        <time>2019-06-17T07:13:53.588Z</time>
      </trkpt>
      <trkpt lat="42.97194" lon="-0.34584">
        <ele>1575.8</ele>
        <time>2019-06-17T07:13:53.740Z</time>
      </trkpt>
      <trkpt lat="42.972" lon="-0.3458">
        <ele>1577.6</ele>
        <time>2019-06-17T07:13:53.847Z</time>
      </trkpt>
      <trkpt lat="42.97218" lon="-0.34578">
        <ele>1579.3</ele>
        <time>2019-06-17T07:13:54.137Z</time>
      </trkpt>
      <trkpt lat="42.9724" lon="-0.34578">
        <ele>1582.9</ele>
        <time>2019-06-17T07:13:54.490Z</time>
      </trkpt>
      <trkpt lat="42.9725" lon="-0.34582">
        <ele>1584.2</ele>
        <time>2019-06-17T07:13:54.657Z</time>
      </trkpt>
      <trkpt lat="42.97259" lon="-0.34594">
        <ele>1585.5</ele>
        <time>2019-06-17T07:13:54.859Z</time>
      </trkpt>
      <trkpt lat="42.97264" lon="-0.34612">
        <ele>1584.4</ele>
        <time>2019-06-17T07:13:55.085Z</time>
      </trkpt>
      <trkpt lat="42.97267" lon="-0.34628">
        <ele>1583.8</ele>
        <time>2019-06-17T07:13:55.279Z</time>
      </trkpt>
      <trkpt lat="42.9727" lon="-0.34635">
        <ele>1584.2</ele>
        <time>2019-06-17T07:13:55.374Z</time>
      </trkpt>
      <trkpt lat="42.97272" lon="-0.34639">
        <ele>1584.5</ele>
        <time>2019-06-17T07:13:55.431Z</time>
      </trkpt>
      <trkpt lat="42.97279" lon="-0.34643">
        <ele>1586.6</ele>
        <time>2019-06-17T07:13:55.553Z</time>
      </trkpt>
      <trkpt lat="42.97286" lon="-0.34645">
        <ele>1587.5</ele>
        <time>2019-06-17T07:13:55.668Z</time>
      </trkpt>
      <trkpt lat="42.97306" lon="-0.34648">
        <ele>1590.1</ele>
        <time>2019-06-17T07:13:55.991Z</time>
      </trkpt>
      <trkpt lat="42.97321" lon="-0.34651">
        <ele>1592.2</ele>
        <time>2019-06-17T07:13:56.234Z</time>
      </trkpt>
      <trkpt lat="42.97339" lon="-0.34652">
        <ele>1593.9</ele>
        <time>2019-06-17T07:13:56.523Z</time>
      </trkpt>
      <trkpt lat="42.97353" lon="-0.34647">
        <ele>1594</ele>
        <time>2019-06-17T07:13:56.755Z</time>
      </trkpt>
      <trkpt lat="42.97361" lon="-0.34639">
        <ele>1595</ele>
        <time>2019-06-17T07:13:56.914Z</time>
      </trkpt>
      <trkpt lat="42.97366" lon="-0.34631">
        <ele>1595.5</ele>
        <time>2019-06-17T07:13:57.037Z</time>
      </trkpt>
      <trkpt lat="42.97368" lon="-0.34619">
        <ele>1596.8</ele>
        <time>2019-06-17T07:13:57.181Z</time>
      </trkpt>
      <trkpt lat="42.97362" lon="-0.34573">
        <ele>1602.7</ele>
        <time>2019-06-17T07:13:57.729Z</time>
      </trkpt>
      <trkpt lat="42.97364" lon="-0.34553">
        <ele>1604.3</ele>
        <time>2019-06-17T07:13:57.966Z</time>
      </trkpt>
      <trkpt lat="42.97368" lon="-0.34543">
        <ele>1605.2</ele>
        <time>2019-06-17T07:13:58.100Z</time>
      </trkpt>
      <trkpt lat="42.97375" lon="-0.34534">
        <ele>1606.1</ele>
        <time>2019-06-17T07:13:58.254Z</time>
      </trkpt>
      <trkpt lat="42.97388" lon="-0.34529">
        <ele>1606.9</ele>
        <time>2019-06-17T07:13:58.471Z</time>
      </trkpt>
      <trkpt lat="42.97396" lon="-0.34526">
        <ele>1606.9</ele>
        <time>2019-06-17T07:13:58.604Z</time>
      </trkpt>
      <trkpt lat="42.97404" lon="-0.3452">
        <ele>1607.3</ele>
        <time>2019-06-17T07:13:58.750Z</time>
      </trkpt>
      <trkpt lat="42.9741" lon="-0.34512">
        <ele>1608.2</ele>
        <time>2019-06-17T07:13:58.884Z</time>
      </trkpt>
      <trkpt lat="42.97416" lon="-0.345">
        <ele>1610</ele>
        <time>2019-06-17T07:13:59.054Z</time>
      </trkpt>
      <trkpt lat="42.97425" lon="-0.34465">
        <ele>1613.4</ele>
        <time>2019-06-17T07:13:59.489Z</time>
      </trkpt>
      <trkpt lat="42.97434" lon="-0.34451">
        <ele>1614.8</ele>
        <time>2019-06-17T07:13:59.708Z</time>
      </trkpt>
      <trkpt lat="42.97446" lon="-0.34442">
        <ele>1615.3</ele>
        <time>2019-06-17T07:13:59.927Z</time>
      </trkpt>
      <trkpt lat="42.97453" lon="-0.3444">
        <ele>1615.9</ele>
        <time>2019-06-17T07:14:00.042Z</time>
      </trkpt>
      <trkpt lat="42.97463" lon="-0.34442">
        <ele>1616.5</ele>
        <time>2019-06-17T07:14:00.204Z</time>
      </trkpt>
      <trkpt lat="42.97469" lon="-0.34443">
        <ele>1616.8</ele>
        <time>2019-06-17T07:14:00.301Z</time>
      </trkpt>
      <trkpt lat="42.97484" lon="-0.34452">
        <ele>1618.7</ele>
        <time>2019-06-17T07:14:00.564Z</time>
      </trkpt>
      <trkpt lat="42.97508" lon="-0.3447">
        <ele>1622.7</ele>
        <time>2019-06-17T07:14:01.003Z</time>
      </trkpt>
      <trkpt lat="42.9752" lon="-0.34485">
        <ele>1624.5</ele>
        <time>2019-06-17T07:14:01.264Z</time>
      </trkpt>
      <trkpt lat="42.97534" lon="-0.34513">
        <ele>1625.3</ele>
        <time>2019-06-17T07:14:01.662Z</time>
      </trkpt>
      <trkpt lat="42.97541" lon="-0.34522">
        <ele>1625.9</ele>
        <time>2019-06-17T07:14:01.816Z</time>
      </trkpt>
      <trkpt lat="42.97551" lon="-0.34529">
        <ele>1627.1</ele>
        <time>2019-06-17T07:14:01.996Z</time>
      </trkpt>
      <trkpt lat="42.97562" lon="-0.3453">
        <ele>1628</ele>
        <time>2019-06-17T07:14:02.173Z</time>
      </trkpt>
      <trkpt lat="42.97575" lon="-0.34527">
        <ele>1628.8</ele>
        <time>2019-06-17T07:14:02.384Z</time>
      </trkpt>
      <trkpt lat="42.97589" lon="-0.34513">
        <ele>1630.7</ele>
        <time>2019-06-17T07:14:02.662Z</time>
      </trkpt>
      <trkpt lat="42.97598" lon="-0.34496">
        <ele>1632.7</ele>
        <time>2019-06-17T07:14:02.908Z</time>
      </trkpt>
      <trkpt lat="42.97607" lon="-0.34484">
        <ele>1635.1</ele>
        <time>2019-06-17T07:14:03.110Z</time>
      </trkpt>
      <trkpt lat="42.97619" lon="-0.34481">
        <ele>1637.4</ele>
        <time>2019-06-17T07:14:03.306Z</time>
      </trkpt>
      <trkpt lat="42.97623" lon="-0.34483">
        <ele>1637.8</ele>
        <time>2019-06-17T07:14:03.374Z</time>
      </trkpt>
      <trkpt lat="42.9763" lon="-0.34492">
        <ele>1637.4</ele>
        <time>2019-06-17T07:14:03.528Z</time>
      </trkpt>
      <trkpt lat="42.97647" lon="-0.34511">
        <ele>1638.6</ele>
        <time>2019-06-17T07:14:03.880Z</time>
      </trkpt>
      <trkpt lat="42.97667" lon="-0.34525">
        <ele>1640.5</ele>
        <time>2019-06-17T07:14:04.240Z</time>
      </trkpt>
      <trkpt lat="42.97685" lon="-0.34531">
        <ele>1641.8</ele>
        <time>2019-06-17T07:14:04.537Z</time>
      </trkpt>
      <trkpt lat="42.97704" lon="-0.34529">
        <ele>1643</ele>
        <time>2019-06-17T07:14:04.842Z</time>
      </trkpt>
      <trkpt lat="42.97716" lon="-0.3452">
        <ele>1644.1</ele>
        <time>2019-06-17T07:14:05.061Z</time>
      </trkpt>
      <trkpt lat="42.97725" lon="-0.3451">
        <ele>1645.2</ele>
        <time>2019-06-17T07:14:05.247Z</time>
      </trkpt>
      <trkpt lat="42.97739" lon="-0.34477">
        <ele>1648.5</ele>
        <time>2019-06-17T07:14:05.694Z</time>
      </trkpt>
      <trkpt lat="42.97746" lon="-0.34464">
        <ele>1649.6</ele>
        <time>2019-06-17T07:14:05.883Z</time>
      </trkpt>
      <trkpt lat="42.97754" lon="-0.34452">
        <ele>1650.6</ele>
        <time>2019-06-17T07:14:06.073Z</time>
      </trkpt>
      <trkpt lat="42.97768" lon="-0.34432">
        <ele>1652.4</ele>
        <time>2019-06-17T07:14:06.398Z</time>
      </trkpt>
      <trkpt lat="42.97789" lon="-0.34392">
        <ele>1655.3</ele>
        <time>2019-06-17T07:14:06.975Z</time>
      </trkpt>
      <trkpt lat="42.97806" lon="-0.34356">
        <ele>1658</ele>
        <time>2019-06-17T07:14:07.478Z</time>
      </trkpt>
      <trkpt lat="42.97812" lon="-0.34328">
        <ele>1662.1</ele>
        <time>2019-06-17T07:14:07.820Z</time>
      </trkpt>
      <trkpt lat="42.97815" lon="-0.34317">
        <ele>1663.7</ele>
        <time>2019-06-17T07:14:07.958Z</time>
      </trkpt>
      <trkpt lat="42.97822" lon="-0.34305">
        <ele>1665.3</ele>
        <time>2019-06-17T07:14:08.138Z</time>
      </trkpt>
      <trkpt lat="42.97838" lon="-0.34298">
        <ele>1665.9</ele>
        <time>2019-06-17T07:14:08.407Z</time>
      </trkpt>
      <trkpt lat="42.97853" lon="-0.34298">
        <ele>1665.6</ele>
        <time>2019-06-17T07:14:08.647Z</time>
      </trkpt>
      <trkpt lat="42.97871" lon="-0.34305">
        <ele>1663.5</ele>
        <time>2019-06-17T07:14:08.947Z</time>
      </trkpt>
      <trkpt lat="42.97877" lon="-0.34308">
        <ele>1663</ele>
        <time>2019-06-17T07:14:09.049Z</time>
      </trkpt>
      <trkpt lat="42.97885" lon="-0.34308">
        <ele>1663.4</ele>
        <time>2019-06-17T07:14:09.177Z</time>
      </trkpt>
      <trkpt lat="42.97892" lon="-0.34303">
        <ele>1664.5</ele>
        <time>2019-06-17T07:14:09.304Z</time>
      </trkpt>
      <trkpt lat="42.97895" lon="-0.34297">
        <ele>1665.5</ele>
        <time>2019-06-17T07:14:09.389Z</time>
      </trkpt>
      <trkpt lat="42.97896" lon="-0.34285">
        <ele>1667.7</ele>
        <time>2019-06-17T07:14:09.531Z</time>
      </trkpt>
      <trkpt lat="42.97894" lon="-0.3428">
        <ele>1668.6</ele>
        <time>2019-06-17T07:14:09.598Z</time>
      </trkpt>
      <trkpt lat="42.97891" lon="-0.34277">
        <ele>1669.3</ele>
        <time>2019-06-17T07:14:09.658Z</time>
      </trkpt>
      <trkpt lat="42.97883" lon="-0.34275">
        <ele>1670.8</ele>
        <time>2019-06-17T07:14:09.788Z</time>
      </trkpt>
      <trkpt lat="42.97865" lon="-0.34278">
        <ele>1671.5</ele>
        <time>2019-06-17T07:14:10.079Z</time>
      </trkpt>
      <trkpt lat="42.97846" lon="-0.3428">
        <ele>1672.3</ele>
        <time>2019-06-17T07:14:10.385Z</time>
      </trkpt>
      <trkpt lat="42.97824" lon="-0.34278">
        <ele>1675.3</ele>
        <time>2019-06-17T07:14:10.738Z</time>
      </trkpt>
      <trkpt lat="42.97811" lon="-0.3428">
        <ele>1676.4</ele>
        <time>2019-06-17T07:14:10.948Z</time>
      </trkpt>
      <trkpt lat="42.97799" lon="-0.34291">
        <ele>1675.8</ele>
        <time>2019-06-17T07:14:11.180Z</time>
      </trkpt>
      <trkpt lat="42.97782" lon="-0.34309">
        <ele>1677.3</ele>
        <time>2019-06-17T07:14:11.525Z</time>
      </trkpt>
      <trkpt lat="42.97769" lon="-0.34318">
        <ele>1678.4</ele>
        <time>2019-06-17T07:14:11.759Z</time>
      </trkpt>
      <trkpt lat="42.97754" lon="-0.34323">
        <ele>1679.9</ele>
        <time>2019-06-17T07:14:12.007Z</time>
      </trkpt>
      <trkpt lat="42.9774" lon="-0.34324">
        <ele>1680.8</ele>
        <time>2019-06-17T07:14:12.232Z</time>
      </trkpt>
      <trkpt lat="42.9773" lon="-0.34323">
        <ele>1681.5</ele>
        <time>2019-06-17T07:14:12.393Z</time>
      </trkpt>
      <trkpt lat="42.97715" lon="-0.34308">
        <ele>1683.3</ele>
        <time>2019-06-17T07:14:12.691Z</time>
      </trkpt>
      <trkpt lat="42.97706" lon="-0.34281">
        <ele>1685.5</ele>
        <time>2019-06-17T07:14:13.039Z</time>
      </trkpt>
      <trkpt lat="42.977" lon="-0.34244">
        <ele>1689.1</ele>
        <time>2019-06-17T07:14:13.484Z</time>
      </trkpt>
      <trkpt lat="42.97694" lon="-0.34219">
        <ele>1690.4</ele>
        <time>2019-06-17T07:14:13.793Z</time>
      </trkpt>
      <trkpt lat="42.97685" lon="-0.34201">
        <ele>1691.9</ele>
        <time>2019-06-17T07:14:14.049Z</time>
      </trkpt>
      <trkpt lat="42.97656" lon="-0.34163">
        <ele>1695.5</ele>
        <time>2019-06-17T07:14:14.693Z</time>
      </trkpt>
      <trkpt lat="42.97644" lon="-0.34143">
        <ele>1697.1</ele>
        <time>2019-06-17T07:14:14.996Z</time>
      </trkpt>
      <trkpt lat="42.97635" lon="-0.34118">
        <ele>1698.6</ele>
        <time>2019-06-17T07:14:15.323Z</time>
      </trkpt>
      <trkpt lat="42.97626" lon="-0.34072">
        <ele>1701.8</ele>
        <time>2019-06-17T07:14:15.882Z</time>
      </trkpt>
      <trkpt lat="42.97625" lon="-0.34048">
        <ele>1703.5</ele>
        <time>2019-06-17T07:14:16.164Z</time>
      </trkpt>
      <trkpt lat="42.97629" lon="-0.34029">
        <ele>1705.5</ele>
        <time>2019-06-17T07:14:16.396Z</time>
      </trkpt>
      <trkpt lat="42.97632" lon="-0.3402">
        <ele>1706.4</ele>
        <time>2019-06-17T07:14:16.512Z</time>
      </trkpt>
      <trkpt lat="42.97644" lon="-0.33996">
        <ele>1708.4</ele>
        <time>2019-06-17T07:14:16.853Z</time>
      </trkpt>
      <trkpt lat="42.97659" lon="-0.33973">
        <ele>1708.6</ele>
        <time>2019-06-17T07:14:17.214Z</time>
      </trkpt>
      <trkpt lat="42.97663" lon="-0.33964">
        <ele>1707.5</ele>
        <time>2019-06-17T07:14:17.338Z</time>
      </trkpt>
      <trkpt lat="42.97661" lon="-0.33946">
        <ele>1706.3</ele>
        <time>2019-06-17T07:14:17.552Z</time>
      </trkpt>
      <trkpt lat="42.97641" lon="-0.33901">
        <ele>1702.7</ele>
        <time>2019-06-17T07:14:18.170Z</time>
      </trkpt>
      <trkpt lat="42.97633" lon="-0.33871">
        <ele>1701.3</ele>
        <time>2019-06-17T07:14:18.545Z</time>
      </trkpt>
      <trkpt lat="42.97628" lon="-0.33847">
        <ele>1699.9</ele>
        <time>2019-06-17T07:14:18.838Z</time>
      </trkpt>
      <trkpt lat="42.97621" lon="-0.33817">
        <ele>1696.8</ele>
        <time>2019-06-17T07:14:19.207Z</time>
      </trkpt>
      <trkpt lat="42.97614" lon="-0.33802">
        <ele>1694.8</ele>
        <time>2019-06-17T07:14:19.416Z</time>
      </trkpt>
      <trkpt lat="42.97603" lon="-0.33789">
        <ele>1693</ele>
        <time>2019-06-17T07:14:19.649Z</time>
      </trkpt>
      <trkpt lat="42.97539" lon="-0.33739">
        <ele>1687.8</ele>
        <time>2019-06-17T07:14:20.831Z</time>
      </trkpt>
      <trkpt lat="42.9752" lon="-0.33712">
        <ele>1685.5</ele>
        <time>2019-06-17T07:14:21.270Z</time>
      </trkpt>
      <trkpt lat="42.97515" lon="-0.33693">
        <ele>1683.8</ele>
        <time>2019-06-17T07:14:21.507Z</time>
      </trkpt>
      <trkpt lat="42.97513" lon="-0.33671">
        <ele>1683.3</ele>
        <time>2019-06-17T07:14:21.767Z</time>
      </trkpt>
      <trkpt lat="42.97514" lon="-0.33632">
        <ele>1680.3</ele>
        <time>2019-06-17T07:14:22.225Z</time>
      </trkpt>
      <trkpt lat="42.97504" lon="-0.33544">
        <ele>1674</ele>
        <time>2019-06-17T07:14:23.270Z</time>
      </trkpt>
      <trkpt lat="42.97496" lon="-0.33499">
        <ele>1670</ele>
        <time>2019-06-17T07:14:23.813Z</time>
      </trkpt>
      <trkpt lat="42.97492" lon="-0.33483">
        <ele>1668.2</ele>
        <time>2019-06-17T07:14:24.011Z</time>
      </trkpt>
      <trkpt lat="42.97481" lon="-0.33457">
        <ele>1665.6</ele>
        <time>2019-06-17T07:14:24.363Z</time>
      </trkpt>
      <trkpt lat="42.97469" lon="-0.33437">
        <ele>1662.6</ele>
        <time>2019-06-17T07:14:24.666Z</time>
      </trkpt>
      <trkpt lat="42.97451" lon="-0.33419">
        <ele>1661.3</ele>
        <time>2019-06-17T07:14:25.024Z</time>
      </trkpt>
      <trkpt lat="42.97441" lon="-0.33402">
        <ele>1660.8</ele>
        <time>2019-06-17T07:14:25.280Z</time>
      </trkpt>
      <trkpt lat="42.97429" lon="-0.33371">
        <ele>1658.4</ele>
        <time>2019-06-17T07:14:25.691Z</time>
      </trkpt>
      <trkpt lat="42.97414" lon="-0.33322">
        <ele>1654.9</ele>
        <time>2019-06-17T07:14:26.314Z</time>
      </trkpt>
      <trkpt lat="42.97404" lon="-0.33292">
        <ele>1652.2</ele>
        <time>2019-06-17T07:14:26.701Z</time>
      </trkpt>
      <trkpt lat="42.97397" lon="-0.33277">
        <ele>1651.2</ele>
        <time>2019-06-17T07:14:26.910Z</time>
      </trkpt>
      <trkpt lat="42.97373" lon="-0.33242">
        <ele>1649.5</ele>
        <time>2019-06-17T07:14:27.473Z</time>
      </trkpt>
      <trkpt lat="42.97343" lon="-0.33213">
        <ele>1647.7</ele>
        <time>2019-06-17T07:14:28.062Z</time>
      </trkpt>
      <trkpt lat="42.97323" lon="-0.332">
        <ele>1645.5</ele>
        <time>2019-06-17T07:14:28.417Z</time>
      </trkpt>
      <trkpt lat="42.97299" lon="-0.33193">
        <ele>1643.2</ele>
        <time>2019-06-17T07:14:28.810Z</time>
      </trkpt>
      <trkpt lat="42.97281" lon="-0.33191">
        <ele>1641.9</ele>
        <time>2019-06-17T07:14:29.100Z</time>
      </trkpt>
      <trkpt lat="42.97264" lon="-0.33193">
        <ele>1640.5</ele>
        <time>2019-06-17T07:14:29.374Z</time>
      </trkpt>
      <trkpt lat="42.9725" lon="-0.33198">
        <ele>1640.3</ele>
        <time>2019-06-17T07:14:29.606Z</time>
      </trkpt>
      <trkpt lat="42.97235" lon="-0.33203">
        <ele>1641</ele>
        <time>2019-06-17T07:14:29.854Z</time>
      </trkpt>
      <trkpt lat="42.97227" lon="-0.33202">
        <ele>1640.2</ele>
        <time>2019-06-17T07:14:29.983Z</time>
      </trkpt>
      <trkpt lat="42.97221" lon="-0.33197">
        <ele>1639.2</ele>
        <time>2019-06-17T07:14:30.096Z</time>
      </trkpt>
      <trkpt lat="42.97217" lon="-0.33191">
        <ele>1640.1</ele>
        <time>2019-06-17T07:14:30.191Z</time>
      </trkpt>
      <trkpt lat="42.97214" lon="-0.33169">
        <ele>1639.6</ele>
        <time>2019-06-17T07:14:30.454Z</time>
      </trkpt>
      <trkpt lat="42.97217" lon="-0.33148">
        <ele>1637.7</ele>
        <time>2019-06-17T07:14:30.705Z</time>
      </trkpt>
      <trkpt lat="42.97223" lon="-0.33113">
        <ele>1632.7</ele>
        <time>2019-06-17T07:14:31.127Z</time>
      </trkpt>
      <trkpt lat="42.97221" lon="-0.33096">
        <ele>1631.3</ele>
        <time>2019-06-17T07:14:31.329Z</time>
      </trkpt>
      <trkpt lat="42.97208" lon="-0.33076">
        <ele>1630.9</ele>
        <time>2019-06-17T07:14:31.643Z</time>
      </trkpt>
      <trkpt lat="42.97179" lon="-0.33021">
        <ele>1623.7</ele>
        <time>2019-06-17T07:14:32.438Z</time>
      </trkpt>
      <trkpt lat="42.97169" lon="-0.32997">
        <ele>1623</ele>
        <time>2019-06-17T07:14:32.762Z</time>
      </trkpt>
      <trkpt lat="42.9716" lon="-0.32956">
        <ele>1620.7</ele>
        <time>2019-06-17T07:14:33.264Z</time>
      </trkpt>
      <trkpt lat="42.97148" lon="-0.32887">
        <ele>1616.4</ele>
        <time>2019-06-17T07:14:34.096Z</time>
      </trkpt>
      <trkpt lat="42.97147" lon="-0.3287">
        <ele>1616.9</ele>
        <time>2019-06-17T07:14:34.296Z</time>
      </trkpt>
      <trkpt lat="42.97148" lon="-0.32854">
        <ele>1616.9</ele>
        <time>2019-06-17T07:14:34.484Z</time>
      </trkpt>
      <trkpt lat="42.97154" lon="-0.32835">
        <ele>1615</ele>
        <time>2019-06-17T07:14:34.727Z</time>
      </trkpt>
      <trkpt lat="42.97156" lon="-0.32822">
        <ele>1612.1</ele>
        <time>2019-06-17T07:14:34.883Z</time>
      </trkpt>
      <trkpt lat="42.9715" lon="-0.32806">
        <ele>1610.9</ele>
        <time>2019-06-17T07:14:35.094Z</time>
      </trkpt>
      <trkpt lat="42.97144" lon="-0.32798">
        <ele>1610.9</ele>
        <time>2019-06-17T07:14:35.228Z</time>
      </trkpt>
      <trkpt lat="42.97133" lon="-0.32788">
        <ele>1611.3</ele>
        <time>2019-06-17T07:14:35.440Z</time>
      </trkpt>
      <trkpt lat="42.97126" lon="-0.3278">
        <ele>1610.8</ele>
        <time>2019-06-17T07:14:35.586Z</time>
      </trkpt>
      <trkpt lat="42.9712" lon="-0.32769">
        <ele>1610.4</ele>
        <time>2019-06-17T07:14:35.747Z</time>
      </trkpt>
      <trkpt lat="42.97116" lon="-0.32757">
        <ele>1609.7</ele>
        <time>2019-06-17T07:14:35.902Z</time>
      </trkpt>
      <trkpt lat="42.97116" lon="-0.32743">
        <ele>1609</ele>
        <time>2019-06-17T07:14:36.066Z</time>
      </trkpt>
      <trkpt lat="42.97118" lon="-0.32733">
        <ele>1608.7</ele>
        <time>2019-06-17T07:14:36.188Z</time>
      </trkpt>
      <trkpt lat="42.97128" lon="-0.327">
        <ele>1607.8</ele>
        <time>2019-06-17T07:14:36.607Z</time>
      </trkpt>
      <trkpt lat="42.97139" lon="-0.32679">
        <ele>1607.6</ele>
        <time>2019-06-17T07:14:36.910Z</time>
      </trkpt>
      <trkpt lat="42.97154" lon="-0.32655">
        <ele>1607.1</ele>
        <time>2019-06-17T07:14:37.280Z</time>
      </trkpt>
      <trkpt lat="42.97171" lon="-0.32626">
        <ele>1606.3</ele>
        <time>2019-06-17T07:14:37.716Z</time>
      </trkpt>
      <trkpt lat="42.97185" lon="-0.32609">
        <ele>1606.3</ele>
        <time>2019-06-17T07:14:38.016Z</time>
      </trkpt>
      <trkpt lat="42.97219" lon="-0.32578">
        <ele>1605.9</ele>
        <time>2019-06-17T07:14:38.671Z</time>
      </trkpt>
      <trkpt lat="42.97237" lon="-0.32559">
        <ele>1604.1</ele>
        <time>2019-06-17T07:14:39.036Z</time>
      </trkpt>
      <trkpt lat="42.97245" lon="-0.32539">
        <ele>1603</ele>
        <time>2019-06-17T07:14:39.303Z</time>
      </trkpt>
      <trkpt lat="42.97249" lon="-0.32519">
        <ele>1600.7</ele>
        <time>2019-06-17T07:14:39.546Z</time>
      </trkpt>
      <trkpt lat="42.97246" lon="-0.32495">
        <ele>1597</ele>
        <time>2019-06-17T07:14:39.832Z</time>
      </trkpt>
      <trkpt lat="42.97239" lon="-0.32473">
        <ele>1593.2</ele>
        <time>2019-06-17T07:14:40.113Z</time>
      </trkpt>
      <trkpt lat="42.9723" lon="-0.32461">
        <ele>1589.7</ele>
        <time>2019-06-17T07:14:40.315Z</time>
      </trkpt>
      <trkpt lat="42.97216" lon="-0.32456">
        <ele>1587.2</ele>
        <time>2019-06-17T07:14:40.547Z</time>
      </trkpt>
      <trkpt lat="42.97196" lon="-0.32458">
        <ele>1586.5</ele>
        <time>2019-06-17T07:14:40.868Z</time>
      </trkpt>
      <trkpt lat="42.97187" lon="-0.3246">
        <ele>1587</ele>
        <time>2019-06-17T07:14:41.014Z</time>
      </trkpt>
      <trkpt lat="42.97181" lon="-0.3246">
        <ele>1586.8</ele>
        <time>2019-06-17T07:14:41.110Z</time>
      </trkpt>
      <trkpt lat="42.97162" lon="-0.32452">
        <ele>1581.2</ele>
        <time>2019-06-17T07:14:41.429Z</time>
      </trkpt>
      <trkpt lat="42.9714" lon="-0.32453">
        <ele>1583.1</ele>
        <time>2019-06-17T07:14:41.782Z</time>
      </trkpt>
      <trkpt lat="42.97127" lon="-0.32447">
        <ele>1582.1</ele>
        <time>2019-06-17T07:14:42.002Z</time>
      </trkpt>
      <trkpt lat="42.97113" lon="-0.32437">
        <ele>1581.5</ele>
        <time>2019-06-17T07:14:42.255Z</time>
      </trkpt>
      <trkpt lat="42.9709" lon="-0.32416">
        <ele>1582.4</ele>
        <time>2019-06-17T07:14:42.698Z</time>
      </trkpt>
      <trkpt lat="42.97088" lon="-0.32408">
        <ele>1584.2</ele>
        <time>2019-06-17T07:14:42.797Z</time>
      </trkpt>
      <trkpt lat="42.97088" lon="-0.32398">
        <ele>1585.5</ele>
        <time>2019-06-17T07:14:42.914Z</time>
      </trkpt>
      <trkpt lat="42.97092" lon="-0.32391">
        <ele>1585.2</ele>
        <time>2019-06-17T07:14:43.018Z</time>
      </trkpt>
      <trkpt lat="42.97097" lon="-0.32384">
        <ele>1585.9</ele>
        <time>2019-06-17T07:14:43.133Z</time>
      </trkpt>
      <trkpt lat="42.97111" lon="-0.32374">
        <ele>1587</ele>
        <time>2019-06-17T07:14:43.386Z</time>
      </trkpt>
      <trkpt lat="42.97124" lon="-0.32367">
        <ele>1582.7</ele>
        <time>2019-06-17T07:14:43.610Z</time>
      </trkpt>
      <trkpt lat="42.97136" lon="-0.32355">
        <ele>1579.2</ele>
        <time>2019-06-17T07:14:43.848Z</time>
      </trkpt>
      <trkpt lat="42.97144" lon="-0.32333">
        <ele>1576.6</ele>
        <time>2019-06-17T07:14:44.136Z</time>
      </trkpt>
      <trkpt lat="42.97147" lon="-0.32317">
        <ele>1569.6</ele>
        <time>2019-06-17T07:14:44.330Z</time>
      </trkpt>
      <trkpt lat="42.97145" lon="-0.32297">
        <ele>1566.7</ele>
        <time>2019-06-17T07:14:44.567Z</time>
      </trkpt>
      <trkpt lat="42.97136" lon="-0.32271">
        <ele>1570</ele>
        <time>2019-06-17T07:14:44.904Z</time>
      </trkpt>
      <trkpt lat="42.97143" lon="-0.32235">
        <ele>1571.5</ele>
        <time>2019-06-17T07:14:45.341Z</time>
      </trkpt>
      <trkpt lat="42.97149" lon="-0.32227">
        <ele>1571.7</ele>
        <time>2019-06-17T07:14:45.475Z</time>
      </trkpt>
      <trkpt lat="42.97166" lon="-0.32215">
        <ele>1569.6</ele>
        <time>2019-06-17T07:14:45.782Z</time>
      </trkpt>
      <trkpt lat="42.97182" lon="-0.32202">
        <ele>1561.4</ele>
        <time>2019-06-17T07:14:46.080Z</time>
      </trkpt>
      <trkpt lat="42.97191" lon="-0.32185">
        <ele>1558.9</ele>
        <time>2019-06-17T07:14:46.326Z</time>
      </trkpt>
      <trkpt lat="42.97197" lon="-0.32169">
        <ele>1558.5</ele>
        <time>2019-06-17T07:14:46.537Z</time>
      </trkpt>
      <trkpt lat="42.97206" lon="-0.32152">
        <ele>1556.2</ele>
        <time>2019-06-17T07:14:46.783Z</time>
      </trkpt>
      <trkpt lat="42.97223" lon="-0.32115">
        <ele>1553.3</ele>
        <time>2019-06-17T07:14:47.295Z</time>
      </trkpt>
      <trkpt lat="42.97228" lon="-0.32092">
        <ele>1552.3</ele>
        <time>2019-06-17T07:14:47.576Z</time>
      </trkpt>
      <trkpt lat="42.97229" lon="-0.32073">
        <ele>1552.1</ele>
        <time>2019-06-17T07:14:47.799Z</time>
      </trkpt>
      <trkpt lat="42.97228" lon="-0.32025">
        <ele>1552.4</ele>
        <time>2019-06-17T07:14:48.362Z</time>
      </trkpt>
      <trkpt lat="42.9724" lon="-0.31937">
        <ele>1540.9</ele>
        <time>2019-06-17T07:14:49.412Z</time>
      </trkpt>
      <trkpt lat="42.97252" lon="-0.31835">
        <ele>1536.1</ele>
        <time>2019-06-17T07:14:50.624Z</time>
      </trkpt>
      <trkpt lat="42.97255" lon="-0.31821">
        <ele>1536.2</ele>
        <time>2019-06-17T07:14:50.795Z</time>
      </trkpt>
      <trkpt lat="42.97259" lon="-0.31813">
        <ele>1536</ele>
        <time>2019-06-17T07:14:50.909Z</time>
      </trkpt>
      <trkpt lat="42.97266" lon="-0.31806">
        <ele>1535.5</ele>
        <time>2019-06-17T07:14:51.048Z</time>
      </trkpt>
      <trkpt lat="42.97276" lon="-0.31802">
        <ele>1535.3</ele>
        <time>2019-06-17T07:14:51.215Z</time>
      </trkpt>
      <trkpt lat="42.97292" lon="-0.31799">
        <ele>1537.2</ele>
        <time>2019-06-17T07:14:51.474Z</time>
      </trkpt>
      <trkpt lat="42.97302" lon="-0.31799">
        <ele>1537.7</ele>
        <time>2019-06-17T07:14:51.634Z</time>
      </trkpt>
      <trkpt lat="42.97331" lon="-0.318">
        <ele>1539.5</ele>
        <time>2019-06-17T07:14:52.099Z</time>
      </trkpt>
      <trkpt lat="42.97358" lon="-0.31807">
        <ele>1532</ele>
        <time>2019-06-17T07:14:52.540Z</time>
      </trkpt>
      <trkpt lat="42.97372" lon="-0.31813">
        <ele>1526.8</ele>
        <time>2019-06-17T07:14:52.775Z</time>
      </trkpt>
      <trkpt lat="42.97384" lon="-0.31816">
        <ele>1524.2</ele>
        <time>2019-06-17T07:14:52.971Z</time>
      </trkpt>
      <trkpt lat="42.97408" lon="-0.31821">
        <ele>1519</ele>
        <time>2019-06-17T07:14:53.360Z</time>
      </trkpt>
      <trkpt lat="42.97419" lon="-0.31825">
        <ele>1515.2</ele>
        <time>2019-06-17T07:14:53.542Z</time>
      </trkpt>
      <trkpt lat="42.97441" lon="-0.3183">
        <ele>1506.9</ele>
        <time>2019-06-17T07:14:53.900Z</time>
      </trkpt>
      <trkpt lat="42.97448" lon="-0.31827">
        <ele>1507.1</ele>
        <time>2019-06-17T07:14:54.018Z</time>
      </trkpt>
      <trkpt lat="42.97458" lon="-0.31814">
        <ele>1512.3</ele>
        <time>2019-06-17T07:14:54.239Z</time>
      </trkpt>
      <trkpt lat="42.97467" lon="-0.31807">
        <ele>1513.8</ele>
        <time>2019-06-17T07:14:54.405Z</time>
      </trkpt>
      <trkpt lat="42.97484" lon="-0.31797">
        <ele>1513</ele>
        <time>2019-06-17T07:14:54.702Z</time>
      </trkpt>
      <trkpt lat="42.97501" lon="-0.3179">
        <ele>1509.3</ele>
        <time>2019-06-17T07:14:54.987Z</time>
      </trkpt>
      <trkpt lat="42.97524" lon="-0.31775">
        <ele>1506.3</ele>
        <time>2019-06-17T07:14:55.396Z</time>
      </trkpt>
      <trkpt lat="42.97539" lon="-0.3176">
        <ele>1503.5</ele>
        <time>2019-06-17T07:14:55.694Z</time>
      </trkpt>
      <trkpt lat="42.97546" lon="-0.31751">
        <ele>1502.3</ele>
        <time>2019-06-17T07:14:55.848Z</time>
      </trkpt>
      <trkpt lat="42.97558" lon="-0.31726">
        <ele>1499.4</ele>
        <time>2019-06-17T07:14:56.199Z</time>
      </trkpt>
      <trkpt lat="42.97567" lon="-0.31698">
        <ele>1495.9</ele>
        <time>2019-06-17T07:14:56.558Z</time>
      </trkpt>
      <trkpt lat="42.97571" lon="-0.31673">
        <ele>1493.5</ele>
        <time>2019-06-17T07:14:56.858Z</time>
      </trkpt>
      <trkpt lat="42.97571" lon="-0.3166">
        <ele>1493</ele>
        <time>2019-06-17T07:14:57.010Z</time>
      </trkpt>
      <trkpt lat="42.9757" lon="-0.31628">
        <ele>1491.6</ele>
        <time>2019-06-17T07:14:57.386Z</time>
      </trkpt>
      <trkpt lat="42.97567" lon="-0.31573">
        <ele>1489.3</ele>
        <time>2019-06-17T07:14:58.033Z</time>
      </trkpt>
      <trkpt lat="42.97566" lon="-0.31522">
        <ele>1484.3</ele>
        <time>2019-06-17T07:14:58.631Z</time>
      </trkpt>
      <trkpt lat="42.97564" lon="-0.31488">
        <ele>1483.8</ele>
        <time>2019-06-17T07:14:59.031Z</time>
      </trkpt>
      <trkpt lat="42.97557" lon="-0.31468">
        <ele>1491</ele>
        <time>2019-06-17T07:14:59.291Z</time>
      </trkpt>
      <trkpt lat="42.97558" lon="-0.31453">
        <ele>1491.6</ele>
        <time>2019-06-17T07:14:59.468Z</time>
      </trkpt>
      <trkpt lat="42.97569" lon="-0.31428">
        <ele>1484.9</ele>
        <time>2019-06-17T07:14:59.810Z</time>
      </trkpt>
      <trkpt lat="42.97573" lon="-0.31393">
        <ele>1485.3</ele>
        <time>2019-06-17T07:15:00.226Z</time>
      </trkpt>
      <trkpt lat="42.97575" lon="-0.31363">
        <ele>1482.6</ele>
        <time>2019-06-17T07:15:00.579Z</time>
      </trkpt>
      <trkpt lat="42.97574" lon="-0.31344">
        <ele>1481.8</ele>
        <time>2019-06-17T07:15:00.802Z</time>
      </trkpt>
      <trkpt lat="42.97568" lon="-0.31326">
        <ele>1484.9</ele>
        <time>2019-06-17T07:15:01.034Z</time>
      </trkpt>
      <trkpt lat="42.97563" lon="-0.31301">
        <ele>1486.3</ele>
        <time>2019-06-17T07:15:01.338Z</time>
      </trkpt>
      <trkpt lat="42.97564" lon="-0.31278">
        <ele>1484.9</ele>
        <time>2019-06-17T07:15:01.608Z</time>
      </trkpt>
      <trkpt lat="42.97573" lon="-0.31257">
        <ele>1479.7</ele>
        <time>2019-06-17T07:15:01.893Z</time>
      </trkpt>
      <trkpt lat="42.97587" lon="-0.31225">
        <ele>1473.1</ele>
        <time>2019-06-17T07:15:02.330Z</time>
      </trkpt>
      <trkpt lat="42.9759" lon="-0.31211">
        <ele>1472.1</ele>
        <time>2019-06-17T07:15:02.501Z</time>
      </trkpt>
      <trkpt lat="42.976" lon="-0.31165">
        <ele>1468.7</ele>
        <time>2019-06-17T07:15:03.064Z</time>
      </trkpt>
      <trkpt lat="42.97611" lon="-0.31122">
        <ele>1463.7</ele>
        <time>2019-06-17T07:15:03.598Z</time>
      </trkpt>
      <trkpt lat="42.97616" lon="-0.31093">
        <ele>1461.1</ele>
        <time>2019-06-17T07:15:03.947Z</time>
      </trkpt>
      <trkpt lat="42.97619" lon="-0.31055">
        <ele>1457.9</ele>
        <time>2019-06-17T07:15:04.395Z</time>
      </trkpt>
      <trkpt lat="42.97618" lon="-0.31047">
        <ele>1457.1</ele>
        <time>2019-06-17T07:15:04.490Z</time>
      </trkpt>
      <trkpt lat="42.97613" lon="-0.31035">
        <ele>1457.4</ele>
        <time>2019-06-17T07:15:04.652Z</time>
      </trkpt>
      <trkpt lat="42.9761" lon="-0.31032">
        <ele>1458.3</ele>
        <time>2019-06-17T07:15:04.712Z</time>
      </trkpt>
      <trkpt lat="42.97598" lon="-0.31018">
        <ele>1460</ele>
        <time>2019-06-17T07:15:04.965Z</time>
      </trkpt>
      <trkpt lat="42.97586" lon="-0.31008">
        <ele>1462.3</ele>
        <time>2019-06-17T07:15:05.190Z</time>
      </trkpt>
      <trkpt lat="42.97578" lon="-0.30998">
        <ele>1463.1</ele>
        <time>2019-06-17T07:15:05.364Z</time>
      </trkpt>
      <trkpt lat="42.97557" lon="-0.30966">
        <ele>1460.4</ele>
        <time>2019-06-17T07:15:05.868Z</time>
      </trkpt>
      <trkpt lat="42.97532" lon="-0.30921">
        <ele>1452</ele>
        <time>2019-06-17T07:15:06.531Z</time>
      </trkpt>
      <trkpt lat="42.97516" lon="-0.309">
        <ele>1450.5</ele>
        <time>2019-06-17T07:15:06.887Z</time>
      </trkpt>
      <trkpt lat="42.97482" lon="-0.30865">
        <ele>1453.5</ele>
        <time>2019-06-17T07:15:07.569Z</time>
      </trkpt>
      <trkpt lat="42.97472" lon="-0.30849">
        <ele>1454</ele>
        <time>2019-06-17T07:15:07.816Z</time>
      </trkpt>
      <trkpt lat="42.97457" lon="-0.30819">
        <ele>1453.7</ele>
        <time>2019-06-17T07:15:08.242Z</time>
      </trkpt>
      <trkpt lat="42.9745" lon="-0.308">
        <ele>1454.6</ele>
        <time>2019-06-17T07:15:08.492Z</time>
      </trkpt>
      <trkpt lat="42.97449" lon="-0.3079">
        <ele>1454.5</ele>
        <time>2019-06-17T07:15:08.610Z</time>
      </trkpt>
      <trkpt lat="42.9745" lon="-0.30776">
        <ele>1453.8</ele>
        <time>2019-06-17T07:15:08.775Z</time>
      </trkpt>
      <trkpt lat="42.97457" lon="-0.30762">
        <ele>1452.3</ele>
        <time>2019-06-17T07:15:08.974Z</time>
      </trkpt>
      <trkpt lat="42.97465" lon="-0.30739">
        <ele>1450.5</ele>
        <time>2019-06-17T07:15:09.273Z</time>
      </trkpt>
      <trkpt lat="42.97469" lon="-0.30711">
        <ele>1449.4</ele>
        <time>2019-06-17T07:15:09.608Z</time>
      </trkpt>
      <trkpt lat="42.97483" lon="-0.30596">
        <ele>1440.9</ele>
        <time>2019-06-17T07:15:10.975Z</time>
      </trkpt>
      <trkpt lat="42.97479" lon="-0.30573">
        <ele>1439.8</ele>
        <time>2019-06-17T07:15:11.252Z</time>
      </trkpt>
      <trkpt lat="42.97474" lon="-0.30563">
        <ele>1440</ele>
        <time>2019-06-17T07:15:11.394Z</time>
      </trkpt>
      <trkpt lat="42.97469" lon="-0.30557">
        <ele>1440.6</ele>
        <time>2019-06-17T07:15:11.501Z</time>
      </trkpt>
      <trkpt lat="42.97456" lon="-0.30546">
        <ele>1442.1</ele>
        <time>2019-06-17T07:15:11.746Z</time>
      </trkpt>
      <trkpt lat="42.97423" lon="-0.30522">
        <ele>1444.9</ele>
        <time>2019-06-17T07:15:12.345Z</time>
      </trkpt>
      <trkpt lat="42.97407" lon="-0.30497">
        <ele>1442.7</ele>
        <time>2019-06-17T07:15:12.735Z</time>
      </trkpt>
      <trkpt lat="42.97389" lon="-0.30474">
        <ele>1442.5</ele>
        <time>2019-06-17T07:15:13.130Z</time>
      </trkpt>
      <trkpt lat="42.97383" lon="-0.3047">
        <ele>1441.5</ele>
        <time>2019-06-17T07:15:13.237Z</time>
      </trkpt>
      <trkpt lat="42.97372" lon="-0.30469">
        <ele>1442.3</ele>
        <time>2019-06-17T07:15:13.414Z</time>
      </trkpt>
      <trkpt lat="42.9735" lon="-0.30469">
        <ele>1445.1</ele>
        <time>2019-06-17T07:15:13.767Z</time>
      </trkpt>
      <trkpt lat="42.97335" lon="-0.30461">
        <ele>1443.9</ele>
        <time>2019-06-17T07:15:14.025Z</time>
      </trkpt>
      <trkpt lat="42.97322" lon="-0.3045">
        <ele>1440.5</ele>
        <time>2019-06-17T07:15:14.270Z</time>
      </trkpt>
      <trkpt lat="42.97316" lon="-0.30449">
        <ele>1440.5</ele>
        <time>2019-06-17T07:15:14.367Z</time>
      </trkpt>
      <trkpt lat="42.97308" lon="-0.3045">
        <ele>1441.8</ele>
        <time>2019-06-17T07:15:14.496Z</time>
      </trkpt>
      <trkpt lat="42.97303" lon="-0.30452">
        <ele>1443.1</ele>
        <time>2019-06-17T07:15:14.580Z</time>
      </trkpt>
      <trkpt lat="42.9729" lon="-0.30454">
        <ele>1444.5</ele>
        <time>2019-06-17T07:15:14.790Z</time>
      </trkpt>
      <trkpt lat="42.9728" lon="-0.30451">
        <ele>1443.2</ele>
        <time>2019-06-17T07:15:14.954Z</time>
      </trkpt>
      <trkpt lat="42.97267" lon="-0.30441">
        <ele>1441.3</ele>
        <time>2019-06-17T07:15:15.193Z</time>
      </trkpt>
      <trkpt lat="42.97246" lon="-0.30411">
        <ele>1439.8</ele>
        <time>2019-06-17T07:15:15.680Z</time>
      </trkpt>
      <trkpt lat="42.9723" lon="-0.30381">
        <ele>1437.9</ele>
        <time>2019-06-17T07:15:16.115Z</time>
      </trkpt>
      <trkpt lat="42.97218" lon="-0.30365">
        <ele>1438.1</ele>
        <time>2019-06-17T07:15:16.384Z</time>
      </trkpt>
      <trkpt lat="42.97208" lon="-0.30354">
        <ele>1438.7</ele>
        <time>2019-06-17T07:15:16.590Z</time>
      </trkpt>
      <trkpt lat="42.97197" lon="-0.30336">
        <ele>1436.9</ele>
        <time>2019-06-17T07:15:16.865Z</time>
      </trkpt>
      <trkpt lat="42.97167" lon="-0.30287">
        <ele>1434.5</ele>
        <time>2019-06-17T07:15:17.614Z</time>
      </trkpt>
      <trkpt lat="42.9716" lon="-0.3027">
        <ele>1432.4</ele>
        <time>2019-06-17T07:15:17.843Z</time>
      </trkpt>
      <trkpt lat="42.97138" lon="-0.30233">
        <ele>1429.8</ele>
        <time>2019-06-17T07:15:18.402Z</time>
      </trkpt>
      <trkpt lat="42.97126" lon="-0.30216">
        <ele>1428.4</ele>
        <time>2019-06-17T07:15:18.679Z</time>
      </trkpt>
      <trkpt lat="42.97116" lon="-0.30205">
        <ele>1428</ele>
        <time>2019-06-17T07:15:18.885Z</time>
      </trkpt>
      <trkpt lat="42.97096" lon="-0.30191">
        <ele>1430.1</ele>
        <time>2019-06-17T07:15:19.245Z</time>
      </trkpt>
      <trkpt lat="42.97077" lon="-0.30173">
        <ele>1429</ele>
        <time>2019-06-17T07:15:19.616Z</time>
      </trkpt>
      <trkpt lat="42.97043" lon="-0.30145">
        <ele>1429.5</ele>
        <time>2019-06-17T07:15:20.252Z</time>
      </trkpt>
      <trkpt lat="42.97026" lon="-0.30125">
        <ele>1427.5</ele>
        <time>2019-06-17T07:15:20.612Z</time>
      </trkpt>
      <trkpt lat="42.97019" lon="-0.30109">
        <ele>1424.2</ele>
        <time>2019-06-17T07:15:20.831Z</time>
      </trkpt>
      <trkpt lat="42.97013" lon="-0.30082">
        <ele>1418.4</ele>
        <time>2019-06-17T07:15:21.162Z</time>
      </trkpt>
      <trkpt lat="42.97007" lon="-0.30071">
        <ele>1416.8</ele>
        <time>2019-06-17T07:15:21.323Z</time>
      </trkpt>
      <trkpt lat="42.96998" lon="-0.30064">
        <ele>1416.9</ele>
        <time>2019-06-17T07:15:21.489Z</time>
      </trkpt>
      <trkpt lat="42.96991" lon="-0.30063">
        <ele>1416.9</ele>
        <time>2019-06-17T07:15:21.602Z</time>
      </trkpt>
      <trkpt lat="42.96952" lon="-0.30094">
        <ele>1426</ele>
        <time>2019-06-17T07:15:22.325Z</time>
      </trkpt>
      <trkpt lat="42.96904" lon="-0.30129">
        <ele>1424.2</ele>
        <time>2019-06-17T07:15:23.197Z</time>
      </trkpt>
      <trkpt lat="42.96867" lon="-0.30162">
        <ele>1417.7</ele>
        <time>2019-06-17T07:15:23.905Z</time>
      </trkpt>
      <trkpt lat="42.96859" lon="-0.30172">
        <ele>1417.2</ele>
        <time>2019-06-17T07:15:24.079Z</time>
      </trkpt>
      <trkpt lat="42.96848" lon="-0.30189">
        <ele>1418.7</ele>
        <time>2019-06-17T07:15:24.345Z</time>
      </trkpt>
      <trkpt lat="42.96837" lon="-0.30207">
        <ele>1420.4</ele>
        <time>2019-06-17T07:15:24.620Z</time>
      </trkpt>
      <trkpt lat="42.96828" lon="-0.30212">
        <ele>1419.1</ele>
        <time>2019-06-17T07:15:24.776Z</time>
      </trkpt>
      <trkpt lat="42.96819" lon="-0.30213">
        <ele>1417.1</ele>
        <time>2019-06-17T07:15:24.921Z</time>
      </trkpt>
      <trkpt lat="42.96811" lon="-0.30211">
        <ele>1414</ele>
        <time>2019-06-17T07:15:25.051Z</time>
      </trkpt>
      <trkpt lat="42.96793" lon="-0.30205">
        <ele>1409.2</ele>
        <time>2019-06-17T07:15:25.348Z</time>
      </trkpt>
      <trkpt lat="42.9678" lon="-0.30208">
        <ele>1409.1</ele>
        <time>2019-06-17T07:15:25.559Z</time>
      </trkpt>
      <trkpt lat="42.96761" lon="-0.30221">
        <ele>1409.5</ele>
        <time>2019-06-17T07:15:25.900Z</time>
      </trkpt>
      <trkpt lat="42.96731" lon="-0.30248">
        <ele>1408.5</ele>
        <time>2019-06-17T07:15:26.476Z</time>
      </trkpt>
      <trkpt lat="42.96716" lon="-0.30262">
        <ele>1409.3</ele>
        <time>2019-06-17T07:15:26.767Z</time>
      </trkpt>
      <trkpt lat="42.967" lon="-0.30273">
        <ele>1410.7</ele>
        <time>2019-06-17T07:15:27.054Z</time>
      </trkpt>
      <trkpt lat="42.96683" lon="-0.3028">
        <ele>1411.3</ele>
        <time>2019-06-17T07:15:27.339Z</time>
      </trkpt>
      <trkpt lat="42.96675" lon="-0.30279">
        <ele>1409.7</ele>
        <time>2019-06-17T07:15:27.468Z</time>
      </trkpt>
      <trkpt lat="42.96657" lon="-0.30274">
        <ele>1407.7</ele>
        <time>2019-06-17T07:15:27.762Z</time>
      </trkpt>
      <trkpt lat="42.96648" lon="-0.30267">
        <ele>1407.2</ele>
        <time>2019-06-17T07:15:27.928Z</time>
      </trkpt>
      <trkpt lat="42.96642" lon="-0.30257">
        <ele>1406.3</ele>
        <time>2019-06-17T07:15:28.080Z</time>
      </trkpt>
      <trkpt lat="42.96629" lon="-0.30228">
        <ele>1404.9</ele>
        <time>2019-06-17T07:15:28.479Z</time>
      </trkpt>
      <trkpt lat="42.96611" lon="-0.30195">
        <ele>1404.1</ele>
        <time>2019-06-17T07:15:28.962Z</time>
      </trkpt>
      <trkpt lat="42.96605" lon="-0.30187">
        <ele>1402.5</ele>
        <time>2019-06-17T07:15:29.096Z</time>
      </trkpt>
      <trkpt lat="42.96597" lon="-0.30184">
        <ele>1401.9</ele>
        <time>2019-06-17T07:15:29.229Z</time>
      </trkpt>
      <trkpt lat="42.96584" lon="-0.30185">
        <ele>1402.3</ele>
        <time>2019-06-17T07:15:29.438Z</time>
      </trkpt>
      <trkpt lat="42.96565" lon="-0.30199">
        <ele>1400.9</ele>
        <time>2019-06-17T07:15:29.784Z</time>
      </trkpt>
      <trkpt lat="42.96524" lon="-0.30225">
        <ele>1397.3</ele>
        <time>2019-06-17T07:15:30.509Z</time>
      </trkpt>
      <trkpt lat="42.96493" lon="-0.3025">
        <ele>1394</ele>
        <time>2019-06-17T07:15:31.086Z</time>
      </trkpt>
      <trkpt lat="42.96468" lon="-0.30272">
        <ele>1392.1</ele>
        <time>2019-06-17T07:15:31.563Z</time>
      </trkpt>
      <trkpt lat="42.96462" lon="-0.30279">
        <ele>1392.1</ele>
        <time>2019-06-17T07:15:31.689Z</time>
      </trkpt>
      <trkpt lat="42.96441" lon="-0.30295">
        <ele>1390.3</ele>
        <time>2019-06-17T07:15:32.074Z</time>
      </trkpt>
      <trkpt lat="42.96436" lon="-0.30299">
        <ele>1389.8</ele>
        <time>2019-06-17T07:15:32.167Z</time>
      </trkpt>
      <trkpt lat="42.9643" lon="-0.30312">
        <ele>1391.5</ele>
        <time>2019-06-17T07:15:32.347Z</time>
      </trkpt>
      <trkpt lat="42.96419" lon="-0.30322">
        <ele>1390.5</ele>
        <time>2019-06-17T07:15:32.559Z</time>
      </trkpt>
      <trkpt lat="42.96411" lon="-0.30326">
        <ele>1389.7</ele>
        <time>2019-06-17T07:15:32.696Z</time>
      </trkpt>
      <trkpt lat="42.96387" lon="-0.30329">
        <ele>1386.7</ele>
        <time>2019-06-17T07:15:33.082Z</time>
      </trkpt>
      <trkpt lat="42.96379" lon="-0.3033">
        <ele>1389.8</ele>
        <time>2019-06-17T07:15:33.211Z</time>
      </trkpt>
      <trkpt lat="42.96374" lon="-0.30327">
        <ele>1390.1</ele>
        <time>2019-06-17T07:15:33.299Z</time>
      </trkpt>
      <trkpt lat="42.96365" lon="-0.30311">
        <ele>1386.1</ele>
        <time>2019-06-17T07:15:33.536Z</time>
      </trkpt>
      <trkpt lat="42.96345" lon="-0.30231">
        <ele>1372</ele>
        <time>2019-06-17T07:15:34.528Z</time>
      </trkpt>
      <trkpt lat="42.96344" lon="-0.30225">
        <ele>1370.4</ele>
        <time>2019-06-17T07:15:34.600Z</time>
      </trkpt>
      <trkpt lat="42.9633" lon="-0.30168">
        <ele>1358.3</ele>
        <time>2019-06-17T07:15:35.305Z</time>
      </trkpt>
      <trkpt lat="42.96312" lon="-0.30115">
        <ele>1355.4</ele>
        <time>2019-06-17T07:15:35.990Z</time>
      </trkpt>
      <trkpt lat="42.96293" lon="-0.30056">
        <ele>1358.3</ele>
        <time>2019-06-17T07:15:36.746Z</time>
      </trkpt>
      <trkpt lat="42.96276" lon="-0.30019">
        <ele>1369.4</ele>
        <time>2019-06-17T07:15:37.259Z</time>
      </trkpt>
      <trkpt lat="42.96269" lon="-0.29976">
        <ele>1362.9</ele>
        <time>2019-06-17T07:15:37.776Z</time>
      </trkpt>
      <trkpt lat="42.96259" lon="-0.29943">
        <ele>1362.4</ele>
        <time>2019-06-17T07:15:38.195Z</time>
      </trkpt>
      <trkpt lat="42.96245" lon="-0.29922">
        <ele>1370.7</ele>
        <time>2019-06-17T07:15:38.528Z</time>
      </trkpt>
      <trkpt lat="42.96233" lon="-0.29896">
        <ele>1370.9</ele>
        <time>2019-06-17T07:15:38.889Z</time>
      </trkpt>
      <trkpt lat="42.96218" lon="-0.29878">
        <ele>1376</ele>
        <time>2019-06-17T07:15:39.209Z</time>
      </trkpt>
      <trkpt lat="42.96203" lon="-0.29851">
        <ele>1375.1</ele>
        <time>2019-06-17T07:15:39.607Z</time>
      </trkpt>
      <trkpt lat="42.96178" lon="-0.29801">
        <ele>1369.2</ele>
        <time>2019-06-17T07:15:40.317Z</time>
      </trkpt>
      <trkpt lat="42.96169" lon="-0.2979">
        <ele>1368.5</ele>
        <time>2019-06-17T07:15:40.511Z</time>
      </trkpt>
      <trkpt lat="42.9615" lon="-0.2978">
        <ele>1371.4</ele>
        <time>2019-06-17T07:15:40.837Z</time>
      </trkpt>
      <trkpt lat="42.96136" lon="-0.29772">
        <ele>1373</ele>
        <time>2019-06-17T07:15:41.080Z</time>
      </trkpt>
      <trkpt lat="42.96125" lon="-0.29763">
        <ele>1373.4</ele>
        <time>2019-06-17T07:15:41.286Z</time>
      </trkpt>
      <trkpt lat="42.96103" lon="-0.29741">
        <ele>1372.4</ele>
        <time>2019-06-17T07:15:41.723Z</time>
      </trkpt>
      <trkpt lat="42.9609" lon="-0.29721">
        <ele>1371.6</ele>
        <time>2019-06-17T07:15:42.037Z</time>
      </trkpt>
      <trkpt lat="42.96057" lon="-0.29642">
        <ele>1368.5</ele>
        <time>2019-06-17T07:15:43.104Z</time>
      </trkpt>
      <trkpt lat="42.96044" lon="-0.29613">
        <ele>1367.5</ele>
        <time>2019-06-17T07:15:43.503Z</time>
      </trkpt>
      <trkpt lat="42.96022" lon="-0.29583">
        <ele>1369.2</ele>
        <time>2019-06-17T07:15:44.001Z</time>
      </trkpt>
      <trkpt lat="42.96001" lon="-0.29573">
        <ele>1381.7</ele>
        <time>2019-06-17T07:15:44.358Z</time>
      </trkpt>
      <trkpt lat="42.9598" lon="-0.29563">
        <ele>1393.7</ele>
        <time>2019-06-17T07:15:44.715Z</time>
      </trkpt>
      <trkpt lat="42.95969" lon="-0.29553">
        <ele>1396</ele>
        <time>2019-06-17T07:15:44.927Z</time>
      </trkpt>
      <trkpt lat="42.95962" lon="-0.29544">
        <ele>1395.9</ele>
        <time>2019-06-17T07:15:45.081Z</time>
      </trkpt>
      <trkpt lat="42.95949" lon="-0.2952">
        <ele>1391.8</ele>
        <time>2019-06-17T07:15:45.431Z</time>
      </trkpt>
      <trkpt lat="42.95943" lon="-0.295">
        <ele>1383.1</ele>
        <time>2019-06-17T07:15:45.685Z</time>
      </trkpt>
      <trkpt lat="42.9594" lon="-0.29482">
        <ele>1376.3</ele>
        <time>2019-06-17T07:15:45.902Z</time>
      </trkpt>
      <trkpt lat="42.95937" lon="-0.2945">
        <ele>1365.4</ele>
        <time>2019-06-17T07:15:46.281Z</time>
      </trkpt>
      <trkpt lat="42.9592" lon="-0.2942">
        <ele>1364</ele>
        <time>2019-06-17T07:15:46.726Z</time>
      </trkpt>
      <trkpt lat="42.95897" lon="-0.29394">
        <ele>1362.9</ele>
        <time>2019-06-17T07:15:47.205Z</time>
      </trkpt>
      <trkpt lat="42.95878" lon="-0.29367">
        <ele>1359.1</ele>
        <time>2019-06-17T07:15:47.644Z</time>
      </trkpt>
      <trkpt lat="42.95866" lon="-0.29339">
        <ele>1353.9</ele>
        <time>2019-06-17T07:15:48.025Z</time>
      </trkpt>
      <trkpt lat="42.95857" lon="-0.29324">
        <ele>1354.4</ele>
        <time>2019-06-17T07:15:48.253Z</time>
      </trkpt>
      <trkpt lat="42.95846" lon="-0.29313">
        <ele>1358.7</ele>
        <time>2019-06-17T07:15:48.472Z</time>
      </trkpt>
      <trkpt lat="42.95836" lon="-0.29304">
        <ele>1363.3</ele>
        <time>2019-06-17T07:15:48.664Z</time>
      </trkpt>
      <trkpt lat="42.95832" lon="-0.29295">
        <ele>1363.5</ele>
        <time>2019-06-17T07:15:48.788Z</time>
      </trkpt>
      <trkpt lat="42.95828" lon="-0.29278">
        <ele>1361.3</ele>
        <time>2019-06-17T07:15:48.998Z</time>
      </trkpt>
      <trkpt lat="42.95832" lon="-0.2925">
        <ele>1353.2</ele>
        <time>2019-06-17T07:15:49.333Z</time>
      </trkpt>
      <trkpt lat="42.95832" lon="-0.29227">
        <ele>1350.7</ele>
        <time>2019-06-17T07:15:49.603Z</time>
      </trkpt>
      <trkpt lat="42.95823" lon="-0.292">
        <ele>1354.5</ele>
        <time>2019-06-17T07:15:49.951Z</time>
      </trkpt>
      <trkpt lat="42.95809" lon="-0.29176">
        <ele>1363.2</ele>
        <time>2019-06-17T07:15:50.311Z</time>
      </trkpt>
      <trkpt lat="42.95806" lon="-0.29164">
        <ele>1363.9</ele>
        <time>2019-06-17T07:15:50.460Z</time>
      </trkpt>
      <trkpt lat="42.95807" lon="-0.29143">
        <ele>1357.4</ele>
        <time>2019-06-17T07:15:50.707Z</time>
      </trkpt>
      <trkpt lat="42.95808" lon="-0.29127">
        <ele>1350</ele>
        <time>2019-06-17T07:15:50.895Z</time>
      </trkpt>
      <trkpt lat="42.95807" lon="-0.29119">
        <ele>1347.7</ele>
        <time>2019-06-17T07:15:50.990Z</time>
      </trkpt>
      <trkpt lat="42.958" lon="-0.29107">
        <ele>1347.9</ele>
        <time>2019-06-17T07:15:51.170Z</time>
      </trkpt>
      <trkpt lat="42.95794" lon="-0.29104">
        <ele>1350.9</ele>
        <time>2019-06-17T07:15:51.272Z</time>
      </trkpt>
      <trkpt lat="42.95779" lon="-0.29101">
        <ele>1361.2</ele>
        <time>2019-06-17T07:15:51.515Z</time>
      </trkpt>
      <trkpt lat="42.95773" lon="-0.291">
        <ele>1364.6</ele>
        <time>2019-06-17T07:15:51.612Z</time>
      </trkpt>
      <trkpt lat="42.95767" lon="-0.29094">
        <ele>1363.3</ele>
        <time>2019-06-17T07:15:51.731Z</time>
      </trkpt>
      <trkpt lat="42.9575" lon="-0.29068">
        <ele>1347.9</ele>
        <time>2019-06-17T07:15:52.140Z</time>
      </trkpt>
      <trkpt lat="42.95744" lon="-0.29059">
        <ele>1339.6</ele>
        <time>2019-06-17T07:15:52.283Z</time>
      </trkpt>
      <trkpt lat="42.95729" lon="-0.29059">
        <ele>1344</ele>
        <time>2019-06-17T07:15:52.523Z</time>
      </trkpt>
      <trkpt lat="42.95717" lon="-0.2906">
        <ele>1345.3</ele>
        <time>2019-06-17T07:15:52.716Z</time>
      </trkpt>
      <trkpt lat="42.95699" lon="-0.29064">
        <ele>1344.4</ele>
        <time>2019-06-17T07:15:53.008Z</time>
      </trkpt>
      <trkpt lat="42.95663" lon="-0.29068">
        <ele>1346</ele>
        <time>2019-06-17T07:15:53.587Z</time>
      </trkpt>
      <trkpt lat="42.95642" lon="-0.29071">
        <ele>1356</ele>
        <time>2019-06-17T07:15:53.925Z</time>
      </trkpt>
      <trkpt lat="42.95627" lon="-0.29072">
        <ele>1366</ele>
        <time>2019-06-17T07:15:54.166Z</time>
      </trkpt>
      <trkpt lat="42.9561" lon="-0.29069">
        <ele>1372.7</ele>
        <time>2019-06-17T07:15:54.441Z</time>
      </trkpt>
      <trkpt lat="42.9559" lon="-0.2906">
        <ele>1371.3</ele>
        <time>2019-06-17T07:15:54.779Z</time>
      </trkpt>
      <trkpt lat="42.95581" lon="-0.29054">
        <ele>1366.7</ele>
        <time>2019-06-17T07:15:54.940Z</time>
      </trkpt>
      <trkpt lat="42.95571" lon="-0.29042">
        <ele>1358.1</ele>
        <time>2019-06-17T07:15:55.153Z</time>
      </trkpt>
      <trkpt lat="42.95544" lon="-0.29011">
        <ele>1345.2</ele>
        <time>2019-06-17T07:15:55.718Z</time>
      </trkpt>
      <trkpt lat="42.95506" lon="-0.28971">
        <ele>1353.4</ele>
        <time>2019-06-17T07:15:56.487Z</time>
      </trkpt>
      <trkpt lat="42.955" lon="-0.28957">
        <ele>1353.5</ele>
        <time>2019-06-17T07:15:56.677Z</time>
      </trkpt>
      <trkpt lat="42.95499" lon="-0.28949">
        <ele>1351.5</ele>
        <time>2019-06-17T07:15:56.772Z</time>
      </trkpt>
      <trkpt lat="42.95499" lon="-0.28933">
        <ele>1346.5</ele>
        <time>2019-06-17T07:15:56.960Z</time>
      </trkpt>
      <trkpt lat="42.95494" lon="-0.28922">
        <ele>1347.2</ele>
        <time>2019-06-17T07:15:57.112Z</time>
      </trkpt>
      <trkpt lat="42.95485" lon="-0.28909">
        <ele>1349.8</ele>
        <time>2019-06-17T07:15:57.322Z</time>
      </trkpt>
      <trkpt lat="42.95466" lon="-0.28889">
        <ele>1353.6</ele>
        <time>2019-06-17T07:15:57.707Z</time>
      </trkpt>
      <trkpt lat="42.95454" lon="-0.28875">
        <ele>1352.7</ele>
        <time>2019-06-17T07:15:57.960Z</time>
      </trkpt>
      <trkpt lat="42.95444" lon="-0.2886">
        <ele>1347.8</ele>
        <time>2019-06-17T07:15:58.198Z</time>
      </trkpt>
      <trkpt lat="42.95439" lon="-0.28845">
        <ele>1345.4</ele>
        <time>2019-06-17T07:15:58.391Z</time>
      </trkpt>
      <trkpt lat="42.95436" lon="-0.28824">
        <ele>1342.9</ele>
        <time>2019-06-17T07:15:58.642Z</time>
      </trkpt>
      <trkpt lat="42.95431" lon="-0.28794">
        <ele>1344.9</ele>
        <time>2019-06-17T07:15:59.003Z</time>
      </trkpt>
      <trkpt lat="42.95393" lon="-0.28688">
        <ele>1357.3</ele>
        <time>2019-06-17T07:16:00.388Z</time>
      </trkpt>
      <trkpt lat="42.95393" lon="-0.2867">
        <ele>1359.1</ele>
        <time>2019-06-17T07:16:00.599Z</time>
      </trkpt>
      <trkpt lat="42.95404" lon="-0.28646">
        <ele>1357.6</ele>
        <time>2019-06-17T07:16:00.931Z</time>
      </trkpt>
      <trkpt lat="42.95412" lon="-0.2863">
        <ele>1356.9</ele>
        <time>2019-06-17T07:16:01.158Z</time>
      </trkpt>
      <trkpt lat="42.95428" lon="-0.28589">
        <ele>1357.9</ele>
        <time>2019-06-17T07:16:01.703Z</time>
      </trkpt>
      <trkpt lat="42.95441" lon="-0.28564">
        <ele>1357.2</ele>
        <time>2019-06-17T07:16:02.063Z</time>
      </trkpt>
      <trkpt lat="42.95455" lon="-0.28534">
        <ele>1357.4</ele>
        <time>2019-06-17T07:16:02.480Z</time>
      </trkpt>
      <trkpt lat="42.95472" lon="-0.28497">
        <ele>1356.5</ele>
        <time>2019-06-17T07:16:02.993Z</time>
      </trkpt>
      <trkpt lat="42.95494" lon="-0.28457">
        <ele>1356.2</ele>
        <time>2019-06-17T07:16:03.580Z</time>
      </trkpt>
      <trkpt lat="42.95502" lon="-0.28429">
        <ele>1355.4</ele>
        <time>2019-06-17T07:16:03.933Z</time>
      </trkpt>
      <trkpt lat="42.95507" lon="-0.28394">
        <ele>1353.7</ele>
        <time>2019-06-17T07:16:04.351Z</time>
      </trkpt>
      <trkpt lat="42.95505" lon="-0.2838">
        <ele>1353.4</ele>
        <time>2019-06-17T07:16:04.518Z</time>
      </trkpt>
      <trkpt lat="42.95495" lon="-0.28354">
        <ele>1355.6</ele>
        <time>2019-06-17T07:16:04.863Z</time>
      </trkpt>
      <trkpt lat="42.95492" lon="-0.28347">
        <ele>1357</ele>
        <time>2019-06-17T07:16:04.958Z</time>
      </trkpt>
      <trkpt lat="42.95492" lon="-0.28336">
        <ele>1356</ele>
        <time>2019-06-17T07:16:05.087Z</time>
      </trkpt>
      <trkpt lat="42.95495" lon="-0.28316">
        <ele>1355.1</ele>
        <time>2019-06-17T07:16:05.327Z</time>
      </trkpt>
      <trkpt lat="42.95499" lon="-0.28243">
        <ele>1356.6</ele>
        <time>2019-06-17T07:16:06.186Z</time>
      </trkpt>
      <trkpt lat="42.95504" lon="-0.28177">
        <ele>1355.4</ele>
        <time>2019-06-17T07:16:06.965Z</time>
      </trkpt>
      <trkpt lat="42.95502" lon="-0.28159">
        <ele>1357.6</ele>
        <time>2019-06-17T07:16:07.179Z</time>
      </trkpt>
      <trkpt lat="42.95494" lon="-0.28134">
        <ele>1364.5</ele>
        <time>2019-06-17T07:16:07.499Z</time>
      </trkpt>
      <trkpt lat="42.9549" lon="-0.2812">
        <ele>1368.5</ele>
        <time>2019-06-17T07:16:07.675Z</time>
      </trkpt>
      <trkpt lat="42.95489" lon="-0.28104">
        <ele>1370.6</ele>
        <time>2019-06-17T07:16:07.863Z</time>
      </trkpt>
      <trkpt lat="42.95497" lon="-0.28081">
        <ele>1370.2</ele>
        <time>2019-06-17T07:16:08.162Z</time>
      </trkpt>
      <trkpt lat="42.95511" lon="-0.28053">
        <ele>1371.8</ele>
        <time>2019-06-17T07:16:08.560Z</time>
      </trkpt>
      <trkpt lat="42.95521" lon="-0.28018">
        <ele>1374.3</ele>
        <time>2019-06-17T07:16:09.001Z</time>
      </trkpt>
      <trkpt lat="42.95527" lon="-0.27985">
        <ele>1377.3</ele>
        <time>2019-06-17T07:16:09.400Z</time>
      </trkpt>
      <trkpt lat="42.95535" lon="-0.27921">
        <ele>1384.4</ele>
        <time>2019-06-17T07:16:10.162Z</time>
      </trkpt>
      <trkpt lat="42.95537" lon="-0.27897">
        <ele>1384.2</ele>
        <time>2019-06-17T07:16:10.445Z</time>
      </trkpt>
      <trkpt lat="42.95542" lon="-0.27816">
        <ele>1386.3</ele>
        <time>2019-06-17T07:16:11.399Z</time>
      </trkpt>
      <trkpt lat="42.95542" lon="-0.27801">
        <ele>1387.1</ele>
        <time>2019-06-17T07:16:11.575Z</time>
      </trkpt>
      <trkpt lat="42.95537" lon="-0.27777">
        <ele>1390</ele>
        <time>2019-06-17T07:16:11.868Z</time>
      </trkpt>
      <trkpt lat="42.95532" lon="-0.27753">
        <ele>1391.8</ele>
        <time>2019-06-17T07:16:12.161Z</time>
      </trkpt>
      <trkpt lat="42.95532" lon="-0.27735">
        <ele>1393.3</ele>
        <time>2019-06-17T07:16:12.372Z</time>
      </trkpt>
      <trkpt lat="42.95537" lon="-0.2772">
        <ele>1394.4</ele>
        <time>2019-06-17T07:16:12.565Z</time>
      </trkpt>
      <trkpt lat="42.95549" lon="-0.27704">
        <ele>1396.3</ele>
        <time>2019-06-17T07:16:12.834Z</time>
      </trkpt>
      <trkpt lat="42.95576" lon="-0.27677">
        <ele>1400.6</ele>
        <time>2019-06-17T07:16:13.370Z</time>
      </trkpt>
      <trkpt lat="42.95616" lon="-0.2764">
        <ele>1404.5</ele>
        <time>2019-06-17T07:16:14.144Z</time>
      </trkpt>
      <trkpt lat="42.9562" lon="-0.27637">
        <ele>1405.1</ele>
        <time>2019-06-17T07:16:14.217Z</time>
      </trkpt>
      <trkpt lat="42.95646" lon="-0.2762">
        <ele>1408.8</ele>
        <time>2019-06-17T07:16:14.679Z</time>
      </trkpt>
      <trkpt lat="42.95654" lon="-0.27619">
        <ele>1410.6</ele>
        <time>2019-06-17T07:16:14.808Z</time>
      </trkpt>
      <trkpt lat="42.95667" lon="-0.27623">
        <ele>1411.8</ele>
        <time>2019-06-17T07:16:15.022Z</time>
      </trkpt>
      <trkpt lat="42.95688" lon="-0.2763">
        <ele>1413.3</ele>
        <time>2019-06-17T07:16:15.369Z</time>
      </trkpt>
      <trkpt lat="42.95722" lon="-0.27633">
        <ele>1416.1</ele>
        <time>2019-06-17T07:16:15.915Z</time>
      </trkpt>
      <trkpt lat="42.95737" lon="-0.27639">
        <ele>1418.2</ele>
        <time>2019-06-17T07:16:16.166Z</time>
      </trkpt>
      <trkpt lat="42.95761" lon="-0.27656">
        <ele>1418.7</ele>
        <time>2019-06-17T07:16:16.599Z</time>
      </trkpt>
      <trkpt lat="42.95769" lon="-0.2766">
        <ele>1418.7</ele>
        <time>2019-06-17T07:16:16.736Z</time>
      </trkpt>
      <trkpt lat="42.95774" lon="-0.2766">
        <ele>1419.4</ele>
        <time>2019-06-17T07:16:16.816Z</time>
      </trkpt>
      <trkpt lat="42.95779" lon="-0.27658">
        <ele>1419.9</ele>
        <time>2019-06-17T07:16:16.900Z</time>
      </trkpt>
      <trkpt lat="42.95787" lon="-0.27645">
        <ele>1419.3</ele>
        <time>2019-06-17T07:16:17.099Z</time>
      </trkpt>
      <trkpt lat="42.95798" lon="-0.27602">
        <ele>1424.7</ele>
        <time>2019-06-17T07:16:17.633Z</time>
      </trkpt>
      <trkpt lat="42.95814" lon="-0.2754">
        <ele>1432.4</ele>
        <time>2019-06-17T07:16:18.404Z</time>
      </trkpt>
      <trkpt lat="42.95821" lon="-0.27499">
        <ele>1438.3</ele>
        <time>2019-06-17T07:16:18.898Z</time>
      </trkpt>
      <trkpt lat="42.9584" lon="-0.27458">
        <ele>1434.5</ele>
        <time>2019-06-17T07:16:19.467Z</time>
      </trkpt>
      <trkpt lat="42.95845" lon="-0.2744">
        <ele>1435.5</ele>
        <time>2019-06-17T07:16:19.693Z</time>
      </trkpt>
      <trkpt lat="42.95844" lon="-0.27431">
        <ele>1434.1</ele>
        <time>2019-06-17T07:16:19.800Z</time>
      </trkpt>
      <trkpt lat="42.9584" lon="-0.27413">
        <ele>1431.9</ele>
        <time>2019-06-17T07:16:20.021Z</time>
      </trkpt>
      <trkpt lat="42.9583" lon="-0.27391">
        <ele>1432.4</ele>
        <time>2019-06-17T07:16:20.325Z</time>
      </trkpt>
      <trkpt lat="42.95818" lon="-0.27362">
        <ele>1434.7</ele>
        <time>2019-06-17T07:16:20.716Z</time>
      </trkpt>
      <trkpt lat="42.9581" lon="-0.27333">
        <ele>1436.6</ele>
        <time>2019-06-17T07:16:21.080Z</time>
      </trkpt>
      <trkpt lat="42.95805" lon="-0.27287">
        <ele>1435.7</ele>
        <time>2019-06-17T07:16:21.626Z</time>
      </trkpt>
      <trkpt lat="42.95807" lon="-0.27266">
        <ele>1435.7</ele>
        <time>2019-06-17T07:16:21.874Z</time>
      </trkpt>
      <trkpt lat="42.95819" lon="-0.27224">
        <ele>1437.4</ele>
        <time>2019-06-17T07:16:22.403Z</time>
      </trkpt>
      <trkpt lat="42.95834" lon="-0.27173">
        <ele>1436.4</ele>
        <time>2019-06-17T07:16:23.048Z</time>
      </trkpt>
      <trkpt lat="42.95833" lon="-0.27126">
        <ele>1436.3</ele>
        <time>2019-06-17T07:16:23.600Z</time>
      </trkpt>
      <trkpt lat="42.95827" lon="-0.27077">
        <ele>1438.4</ele>
        <time>2019-06-17T07:16:24.183Z</time>
      </trkpt>
      <trkpt lat="42.95829" lon="-0.2706">
        <ele>1438.2</ele>
        <time>2019-06-17T07:16:24.385Z</time>
      </trkpt>
      <trkpt lat="42.95838" lon="-0.27039">
        <ele>1438.8</ele>
        <time>2019-06-17T07:16:24.671Z</time>
      </trkpt>
      <trkpt lat="42.95853" lon="-0.27019">
        <ele>1438.5</ele>
        <time>2019-06-17T07:16:25.007Z</time>
      </trkpt>
      <trkpt lat="42.95863" lon="-0.26998">
        <ele>1438.4</ele>
        <time>2019-06-17T07:16:25.301Z</time>
      </trkpt>
      <trkpt lat="42.95881" lon="-0.26935">
        <ele>1440.3</ele>
        <time>2019-06-17T07:16:26.094Z</time>
      </trkpt>
      <trkpt lat="42.95886" lon="-0.26924">
        <ele>1438.9</ele>
        <time>2019-06-17T07:16:26.246Z</time>
      </trkpt>
      <trkpt lat="42.95904" lon="-0.269">
        <ele>1438</ele>
        <time>2019-06-17T07:16:26.649Z</time>
      </trkpt>
      <trkpt lat="42.95923" lon="-0.26871">
        <ele>1441.6</ele>
        <time>2019-06-17T07:16:27.106Z</time>
      </trkpt>
      <trkpt lat="42.95932" lon="-0.26851">
        <ele>1443</ele>
        <time>2019-06-17T07:16:27.381Z</time>
      </trkpt>
      <trkpt lat="42.95936" lon="-0.26831">
        <ele>1442.2</ele>
        <time>2019-06-17T07:16:27.624Z</time>
      </trkpt>
      <trkpt lat="42.9594" lon="-0.26787">
        <ele>1441.4</ele>
        <time>2019-06-17T07:16:28.144Z</time>
      </trkpt>
      <trkpt lat="42.95947" lon="-0.26742">
        <ele>1442.2</ele>
        <time>2019-06-17T07:16:28.684Z</time>
      </trkpt>
      <trkpt lat="42.95968" lon="-0.26629">
        <ele>1445</ele>
        <time>2019-06-17T07:16:30.052Z</time>
      </trkpt>
      <trkpt lat="42.95982" lon="-0.2656">
        <ele>1446.4</ele>
        <time>2019-06-17T07:16:30.892Z</time>
      </trkpt>
      <trkpt lat="42.95989" lon="-0.26511">
        <ele>1450</ele>
        <time>2019-06-17T07:16:31.478Z</time>
      </trkpt>
      <trkpt lat="42.95993" lon="-0.26491">
        <ele>1451.2</ele>
        <time>2019-06-17T07:16:31.721Z</time>
      </trkpt>
      <trkpt lat="42.95997" lon="-0.26481">
        <ele>1451.5</ele>
        <time>2019-06-17T07:16:31.855Z</time>
      </trkpt>
      <trkpt lat="42.9601" lon="-0.26454">
        <ele>1454.2</ele>
        <time>2019-06-17T07:16:32.234Z</time>
      </trkpt>
      <trkpt lat="42.96023" lon="-0.26426">
        <ele>1455.4</ele>
        <time>2019-06-17T07:16:32.623Z</time>
      </trkpt>
      <trkpt lat="42.96039" lon="-0.2638">
        <ele>1458.8</ele>
        <time>2019-06-17T07:16:33.221Z</time>
      </trkpt>
      <trkpt lat="42.96046" lon="-0.26342">
        <ele>1460.7</ele>
        <time>2019-06-17T07:16:33.681Z</time>
      </trkpt>
      <trkpt lat="42.96055" lon="-0.26282">
        <ele>1463.9</ele>
        <time>2019-06-17T07:16:34.400Z</time>
      </trkpt>
      <trkpt lat="42.96058" lon="-0.26239">
        <ele>1466</ele>
        <time>2019-06-17T07:16:34.907Z</time>
      </trkpt>
      <trkpt lat="42.96063" lon="-0.26186">
        <ele>1470</ele>
        <time>2019-06-17T07:16:35.534Z</time>
      </trkpt>
      <trkpt lat="42.96065" lon="-0.26152">
        <ele>1471.3</ele>
        <time>2019-06-17T07:16:35.934Z</time>
      </trkpt>
      <trkpt lat="42.96063" lon="-0.26134">
        <ele>1472.1</ele>
        <time>2019-06-17T07:16:36.148Z</time>
      </trkpt>
      <trkpt lat="42.96063" lon="-0.26131">
        <ele>1472.2</ele>
        <time>2019-06-17T07:16:36.183Z</time>
      </trkpt>
    </trkseg>
  </trk>
</gpx>